Observation data for Panhandle on 01/19/2019      Previous  Date  Next       Current Mesonet Observations  Soil Data  Daily Summary Page  Observations in Plain Language
KPA1 190600Z 34016G22KT M01/M02 A3003 RMK A01 T10111017  RH  095%=      5-min Rain = 0
KPA1 190601Z 34021KT M01/M02 A3003 RMK A01 T10111017  RH  095%=      5-min Rain = 0
KPA1 190602Z 34022KT M01/M02 A3003 RMK A01 T10101017  RH  095%=      5-min Rain = 0
KPA1 190603Z 34021KT M01/M02 A3003 RMK A01 T10101017  RH  095%=      5-min Rain = 0
KPA1 190604Z 34021G27KT M01/M02 A3003 RMK A01 T10101017  RH  095%=      5-min Rain = 0
KPA1 190605Z 33021G27KT M01/M02 A3003 RMK A01 T10101017  RH  095%=      5-min Rain = 0
KPA1 190606Z 33020KT M01/M02 A3004 RMK A01 T10091017  RH  094%=      5-min Rain = 0
KPA1 190607Z 33021G27KT M01/M02 A3004 RMK A01 T10091017  RH  094%=      5-min Rain = 0
KPA1 190608Z 34023G28KT M01/M02 A3004 RMK A01 T10091018  RH  094%=      5-min Rain = 0
KPA1 190609Z 34028G36KT M01/M02 A3003 RMK A01 T10091018  RH  094%=      5-min Rain = 0
KPA1 190610Z 34028KT M01/M02 A3004 RMK A01 T10081018  RH  093%=      5-min Rain = 0
KPA1 190611Z 34025G31KT M01/M02 A3004 RMK A01 T10081019  RH  092%=      5-min Rain = 0
KPA1 190612Z 34023G29KT M01/M02 A3004 RMK A01 T10071019  RH  092%=      5-min Rain = 0
KPA1 190613Z 34024G34KT M01/M02 A3004 RMK A01 T10071019  RH  092%=      5-min Rain = 0
KPA1 190614Z 34025G33KT M01/M02 A3004 RMK A01 T10071020  RH  091%=      5-min Rain = 0
KPA1 190615Z 33029G34KT M01/M02 A3003 RMK A01 T10071021  RH  091%=      5-min Rain = 0
KPA1 190616Z 34027KT M01/M02 A3004 RMK A01 T10071021  RH  090%=      5-min Rain = 0
KPA1 190617Z 34022G28KT M01/M02 A3004 RMK A01 T10071021  RH  090%=      5-min Rain = 0
KPA1 190618Z 34025KT M01/M02 A3004 RMK A01 T10071021  RH  090%=      5-min Rain = 0
KPA1 190619Z 34026G32KT M01/M02 A3004 RMK A01 T10071021  RH  090%=      5-min Rain = 0
KPA1 190620Z 34027KT M01/M02 A3004 RMK A01 T10071021  RH  090%=      5-min Rain = 0
KPA1 190621Z 33028G33KT M01/M02 A3004 RMK A01 T10071022  RH  090%=      5-min Rain = 0
KPA1 190622Z 34027KT M01/M02 A3004 RMK A01 T10071022  RH  090%=      5-min Rain = 0
KPA1 190623Z 34026G31KT M01/M02 A3004 RMK A01 T10071022  RH  090%=      5-min Rain = 0
KPA1 190624Z 34026KT M01/M02 A3004 RMK A01 T10071022  RH  090%=      5-min Rain = 0
KPA1 190625Z 34024G30KT M01/M02 A3004 RMK A01 T10081021  RH  091%=      5-min Rain = 0
KPA1 190626Z 34021KT M01/M02 A3005 RMK A01 T10081021  RH  091%=      5-min Rain = 0
KPA1 190627Z 34019KT M01/M02 A3005 RMK A01 T10081020  RH  091%=      5-min Rain = 0
KPA1 190628Z 34019G26KT M01/M02 A3005 RMK A01 T10081020  RH  092%=      5-min Rain = 0
KPA1 190629Z 33019KT M01/M02 A3005 RMK A01 T10081020  RH  092%=      5-min Rain = 0
KPA1 190630Z 33028G35KT M01/M02 A3005 RMK A01 T10081021  RH  092%=      5-min Rain = 0
KPA1 190631Z 34026KT M01/M02 A3005 RMK A01 T10081022  RH  091%=      5-min Rain = 0
KPA1 190632Z 34022G28KT M01/M02 A3005 RMK A01 T10081023  RH  090%=      5-min Rain = 0
KPA1 190633Z 33023KT M01/M02 A3005 RMK A01 T10091024  RH  090%=      5-min Rain = 0
KPA1 190634Z 34024KT M01/M02 A3005 RMK A01 T10091024  RH  089%=      5-min Rain = 0
KPA1 190635Z 33030KT M01/M03 A3005 RMK A01 T10101025  RH  089%=      5-min Rain = 0
KPA1 190636Z 34027G32KT M01/M03 A3005 RMK A01 T10101027  RH  089%=      5-min Rain = 0
KPA1 190637Z 34026KT M01/M03 A3005 RMK A01 T10111027  RH  088%=      5-min Rain = 0
KPA1 190638Z 33026G31KT M01/M03 A3005 RMK A01 T10111028  RH  088%=      5-min Rain = 0
KPA1 190639Z 33024G29KT M01/M03 A3005 RMK A01 T10111029  RH  088%=      5-min Rain = 0
KPA1 190640Z 33026G31KT M01/M03 A3005 RMK A01 T10111029  RH  088%=      5-min Rain = 0
KPA1 190641Z 33026G31KT M01/M03 A3005 RMK A01 T10111030  RH  087%=      5-min Rain = 0
KPA1 190642Z 33028KT M01/M03 A3005 RMK A01 T10121031  RH  087%=      5-min Rain = 0
KPA1 190643Z 33024G31KT M01/M03 A3005 RMK A01 T10121032  RH  086%=      5-min Rain = 0
KPA1 190644Z 33025G30KT M01/M03 A3005 RMK A01 T10131033  RH  086%=      5-min Rain = 0
KPA1 190645Z 33026G32KT M01/M03 A3006 RMK A01 T10141034  RH  086%=      5-min Rain = 0
KPA1 190646Z 33025G34KT M01/M03 A3006 RMK A01 T10141034  RH  086%=      5-min Rain = 0
KPA1 190647Z 34027G33KT M02/M03 A3006 RMK A01 T10151034  RH  086%=      5-min Rain = 0
KPA1 190648Z 34024G30KT M02/M03 A3006 RMK A01 T10151034  RH  087%=      5-min Rain = 0
KPA1 190649Z 33027G33KT M02/M03 A3006 RMK A01 T10151034  RH  087%=      5-min Rain = 0
KPA1 190650Z 33029G34KT M02/M04 A3006 RMK A01 T10151035  RH  087%=      5-min Rain = 0
KPA1 190651Z 34026KT M02/M04 A3006 RMK A01 T10161036  RH  087%=      5-min Rain = 0
KPA1 190652Z 33027G36KT M02/M04 A3006 RMK A01 T10161036  RH  087%=      5-min Rain = 0
KPA1 190653Z 34026G32KT M02/M04 A3006 RMK A01 T10171036  RH  087%=      5-min Rain = 0
KPA1 190654Z 33024KT M02/M04 A3006 RMK A01 T10171036  RH  087%=      5-min Rain = 0
KPA1 190655Z 33025G30KT M02/M04 A3006 RMK A01 T10171036  RH  087%=      5-min Rain = 0
KPA1 190656Z 33024KT M02/M04 A3006 RMK A01 T10171036  RH  087%=      5-min Rain = 0
KPA1 190657Z 33023G28KT M02/M04 A3006 RMK A01 T10171036  RH  087%=      5-min Rain = 0
KPA1 190658Z 34026G32KT M02/M04 A3006 RMK A01 T10181037  RH  087%=      5-min Rain = 0
KPA1 190659Z 33027G32KT M02/M04 A3006 RMK A01 T10181037  RH  086%=      5-min Rain = 0
KPA1 190700Z 33022G27KT M02/M04 A3007 RMK A01 T10181038  RH  086%=      5-min Rain = 0
KPA1 190701Z 33023KT M02/M04 A3007 RMK A01 T10181038  RH  087%=      5-min Rain = 0
KPA1 190702Z 33022G27KT M02/M04 A3007 RMK A01 T10181038  RH  086%=      5-min Rain = 0
KPA1 190703Z 33026KT M02/M04 A3007 RMK A01 T10191039  RH  086%=      5-min Rain = 0
KPA1 190704Z 33023KT M02/M04 A3007 RMK A01 T10191040  RH  086%=      5-min Rain = 0
KPA1 190705Z 34025KT M02/M04 A3007 RMK A01 T10201041  RH  086%=      5-min Rain = 0
KPA1 190706Z 33027G34KT M02/M04 A3007 RMK A01 T10201041  RH  085%=      5-min Rain = 0
KPA1 190707Z 33027G32KT M02/M04 A3007 RMK A01 T10201041  RH  085%=      5-min Rain = 0
KPA1 190708Z 34026G34KT M02/M04 A3007 RMK A01 T10201042  RH  085%=      5-min Rain = 0
KPA1 190709Z 33025G34KT M02/M04 A3007 RMK A01 T10201041  RH  085%=      5-min Rain = 0
KPA1 190710Z 33025G31KT M02/M04 A3007 RMK A01 T10201042  RH  085%=      5-min Rain = 0
KPA1 190711Z 34024KT M02/M04 A3007 RMK A01 T10211042  RH  085%=      5-min Rain = 0
KPA1 190712Z 33026G34KT M02/M04 A3007 RMK A01 T10211043  RH  085%=      5-min Rain = 0
KPA1 190713Z 34024KT M02/M04 A3008 RMK A01 T10211043  RH  085%=      5-min Rain = 0
KPA1 190714Z 34026KT M02/M04 A3008 RMK A01 T10211043  RH  085%=      5-min Rain = 0
KPA1 190715Z 33026G32KT M02/M04 A3007 RMK A01 T10211044  RH  084%=      5-min Rain = 0
KPA1 190716Z 33025KT M02/M04 A3007 RMK A01 T10211044  RH  084%=      5-min Rain = 0
KPA1 190717Z 34022G30KT M02/M04 A3008 RMK A01 T10221044  RH  085%=      5-min Rain = 0
KPA1 190718Z 34026KT M02/M04 A3008 RMK A01 T10221044  RH  085%=      5-min Rain = 0
KPA1 190719Z 34024G29KT M02/M04 A3008 RMK A01 T10221044  RH  085%=      5-min Rain = 0
KPA1 190720Z 33023KT M02/M04 A3008 RMK A01 T10221044  RH  085%=      5-min Rain = 0
KPA1 190721Z 34023G28KT M02/M04 A3008 RMK A01 T10221044  RH  085%=      5-min Rain = 0
KPA1 190722Z 33019KT M02/M04 A3008 RMK A01 T10221043  RH  085%=      5-min Rain = 0
KPA1 190723Z 34020G26KT M02/M04 A3008 RMK A01 T10221043  RH  085%=      5-min Rain = 0
KPA1 190724Z 33023KT M02/M04 A3008 RMK A01 T10221043  RH  086%=      5-min Rain = 0
KPA1 190725Z 34021KT M02/M04 A3008 RMK A01 T10221043  RH  086%=      5-min Rain = 0
KPA1 190726Z 33020G26KT M02/M04 A3008 RMK A01 T10221043  RH  086%=      5-min Rain = 0
KPA1 190727Z 34024G29KT M02/M04 A3008 RMK A01 T10221043  RH  086%=      5-min Rain = 0
KPA1 190728Z 34026G31KT M02/M04 A3008 RMK A01 T10221044  RH  085%=      5-min Rain = 0
KPA1 190729Z 33027G32KT M02/M05 A3008 RMK A01 T10231045  RH  085%=      5-min Rain = 0
KPA1 190730Z 34022KT M02/M05 A3008 RMK A01 T10231046  RH  084%=      5-min Rain = 0
KPA1 190731Z 34022KT M02/M05 A3008 RMK A01 T10231046  RH  084%=      5-min Rain = 0
KPA1 190732Z 34022G27KT M02/M05 A3008 RMK A01 T10241047  RH  084%=      5-min Rain = 0
KPA1 190733Z 34017KT M02/M05 A3008 RMK A01 T10241047  RH  084%=      5-min Rain = 0
KPA1 190734Z 34021G28KT M02/M05 A3008 RMK A01 T10241046  RH  085%=      5-min Rain = 0
KPA1 190735Z 34022G31KT M02/M05 A3008 RMK A01 T10241046  RH  085%=      5-min Rain = 0
KPA1 190736Z 33021G28KT M02/M05 A3008 RMK A01 T10241047  RH  085%=      5-min Rain = 0
KPA1 190737Z 34018G23KT M03/M05 A3009 RMK A01 T10251047  RH  085%=      5-min Rain = 0
KPA1 190738Z 34022G27KT M03/M05 A3009 RMK A01 T10251048  RH  085%=      5-min Rain = 0
KPA1 190739Z 34020G26KT M03/M05 A3009 RMK A01 T10251047  RH  085%=      5-min Rain = 0
KPA1 190740Z 34019G25KT M03/M05 A3009 RMK A01 T10251047  RH  085%=      5-min Rain = 0
KPA1 190741Z 34019KT M03/M05 A3009 RMK A01 T10251048  RH  085%=      5-min Rain = 0
KPA1 190742Z 34019G24KT M03/M05 A3009 RMK A01 T10261047  RH  085%=      5-min Rain = 0
KPA1 190743Z 34018KT M03/M05 A3009 RMK A01 T10251047  RH  085%=      5-min Rain = 0
KPA1 190744Z 34020KT M03/M05 A3009 RMK A01 T10251047  RH  085%=      5-min Rain = 0
KPA1 190745Z 34017KT M03/M05 A3009 RMK A01 T10261047  RH  085%=      5-min Rain = 0
KPA1 190746Z 34024G32KT M03/M05 A3009 RMK A01 T10261047  RH  085%=      5-min Rain = 0
KPA1 190747Z 34024KT M03/M05 A3009 RMK A01 T10261048  RH  084%=      5-min Rain = 0
KPA1 190748Z 34023KT M03/M05 A3009 RMK A01 T10261049  RH  084%=      5-min Rain = 0
KPA1 190749Z 34020G27KT M03/M05 A3009 RMK A01 T10261050  RH  084%=      5-min Rain = 0
KPA1 190750Z 34023G28KT M03/M05 A3009 RMK A01 T10261051  RH  083%=      5-min Rain = 0
KPA1 190751Z 34024KT M03/M05 A3009 RMK A01 T10261051  RH  083%=      5-min Rain = 0
KPA1 190752Z 34024G30KT M03/M05 A3009 RMK A01 T10271051  RH  083%=      5-min Rain = 0
KPA1 190753Z 33023KT M03/M05 A3009 RMK A01 T10271052  RH  083%=      5-min Rain = 0
KPA1 190754Z 34022KT M03/M05 A3009 RMK A01 T10271052  RH  083%=      5-min Rain = 0
KPA1 190755Z 34024G30KT M03/M05 A3009 RMK A01 T10281053  RH  083%=      5-min Rain = 0
KPA1 190756Z 34028KT M03/M06 A3009 RMK A01 T10281055  RH  082%=      5-min Rain = 0
KPA1 190757Z 34024KT M03/M06 A3009 RMK A01 T10291056  RH  082%=      5-min Rain = 0
KPA1 190758Z 34025G33KT M03/M06 A3009 RMK A01 T10291056  RH  082%=      5-min Rain = 0
KPA1 190759Z 34023G29KT M03/M06 A301 RMK A01 T10291057  RH  082%=      5-min Rain = 0
KPA1 190800Z 34024KT M03/M06 A3009 RMK A01 T10301057  RH  082%=      5-min Rain = 0
KPA1 190801Z 34026KT M03/M06 A3009 RMK A01 T10301057  RH  082%=      5-min Rain = 0
KPA1 190802Z 34023G30KT M03/M06 A301 RMK A01 T10301056  RH  082%=      5-min Rain = 0
KPA1 190803Z 34023G30KT M03/M06 A301 RMK A01 T10301057  RH  082%=      5-min Rain = 0
KPA1 190804Z 34024G32KT M03/M06 A301 RMK A01 T10301057  RH  082%=      5-min Rain = 0
KPA1 190805Z 34025G30KT M03/M06 A301 RMK A01 T10301056  RH  082%=      5-min Rain = 0
KPA1 190806Z 34024G29KT M03/M06 A301 RMK A01 T10301056  RH  082%=      5-min Rain = 0
KPA1 190807Z 34021G29KT M03/M06 A301 RMK A01 T10301056  RH  083%=      5-min Rain = 0
KPA1 190808Z 34025KT M03/M06 A301 RMK A01 T10301056  RH  083%=      5-min Rain = 0
KPA1 190809Z 34027G32KT M03/M06 A3011 RMK A01 T10301056  RH  083%=      5-min Rain = 0
KPA1 190810Z 34027G33KT M03/M06 A3011 RMK A01 T10301056  RH  082%=      5-min Rain = 0
KPA1 190811Z 33027G35KT M03/M06 A301 RMK A01 T10301057  RH  082%=      5-min Rain = 0
KPA1 190812Z 34023G31KT M03/M06 A3011 RMK A01 T10301057  RH  082%=      5-min Rain = 0
KPA1 190813Z 34021KT M03/M06 A3011 RMK A01 T10311057  RH  082%=      5-min Rain = 0
KPA1 190814Z 34023KT M03/M06 A3011 RMK A01 T10311056  RH  082%=      5-min Rain = 0
KPA1 190815Z 34024KT M03/M06 A3011 RMK A01 T10311056  RH  082%=      5-min Rain = 0
KPA1 190816Z 34021KT M03/M06 A3011 RMK A01 T10311057  RH  082%=      5-min Rain = 0
KPA1 190817Z 34019KT M03/M06 A3011 RMK A01 T10311057  RH  082%=      5-min Rain = 0
KPA1 190818Z 34019KT M03/M06 A3011 RMK A01 T10311056  RH  083%=      5-min Rain = 0
KPA1 190819Z 34023G30KT M03/M06 A3011 RMK A01 T10311056  RH  083%=      5-min Rain = 0
KPA1 190820Z 34026G33KT M03/M06 A3011 RMK A01 T10311056  RH  083%=      5-min Rain = 0
KPA1 190821Z 34022G28KT M03/M06 A3011 RMK A01 T10321056  RH  083%=      5-min Rain = 0
KPA1 190822Z 34021G26KT M03/M06 A3011 RMK A01 T10321057  RH  083%=      5-min Rain = 0
KPA1 190823Z 34020G29KT M03/M06 A3011 RMK A01 T10321057  RH  083%=      5-min Rain = 0
KPA1 190824Z 34022G30KT M03/M06 A3011 RMK A01 T10321057  RH  083%=      5-min Rain = 0
KPA1 190825Z 34021KT M03/M06 A3012 RMK A01 T10321057  RH  083%=      5-min Rain = 0
KPA1 190826Z 34021G28KT M03/M06 A3011 RMK A01 T10321057  RH  083%=      5-min Rain = 0
KPA1 190827Z 34024G31KT M03/M06 A3011 RMK A01 T10321057  RH  083%=      5-min Rain = 0
KPA1 190828Z 34024G30KT M03/M06 A3012 RMK A01 T10331057  RH  083%=      5-min Rain = 0
KPA1 190829Z 34023G29KT M03/M06 A3012 RMK A01 T10331057  RH  083%=      5-min Rain = 0
KPA1 190830Z 34024G29KT M03/M06 A3012 RMK A01 T10331057  RH  083%=      5-min Rain = 0
KPA1 190831Z 34025KT M03/M06 A3012 RMK A01 T10331058  RH  083%=      5-min Rain = 0
KPA1 190832Z 33026KT M03/M06 A3011 RMK A01 T10331058  RH  083%=      5-min Rain = 0
KPA1 190833Z 34027KT M03/M06 A3012 RMK A01 T10331059  RH  083%=      5-min Rain = 0
KPA1 190834Z 34023G29KT M03/M06 A3012 RMK A01 T10331059  RH  082%=      5-min Rain = 0
KPA1 190835Z 34027G36KT M03/M06 A3011 RMK A01 T10331059  RH  083%=      5-min Rain = 0
KPA1 190836Z 34028G36KT M03/M06 A3011 RMK A01 T10331059  RH  082%=      5-min Rain = 0
KPA1 190837Z 34027KT M03/M06 A3011 RMK A01 T10331059  RH  082%=      5-min Rain = 0
KPA1 190838Z 34025KT M03/M06 A3011 RMK A01 T10331059  RH  082%=      5-min Rain = 0
KPA1 190839Z 34024G29KT M03/M06 A3012 RMK A01 T10331059  RH  082%=      5-min Rain = 0
KPA1 190840Z 34024G33KT M03/M06 A3012 RMK A01 T10331059  RH  082%=      5-min Rain = 0
KPA1 190841Z 34023KT M03/M06 A3012 RMK A01 T10341059  RH  082%=      5-min Rain = 0
KPA1 190842Z 34023G31KT M03/M06 A3012 RMK A01 T10341059  RH  083%=      5-min Rain = 0
KPA1 190843Z 34022KT M03/M06 A3012 RMK A01 T10341059  RH  083%=      5-min Rain = 0
KPA1 190844Z 34023G28KT M03/M06 A3012 RMK A01 T10341059  RH  083%=      5-min Rain = 0
KPA1 190845Z 34028KT M04/M06 A3011 RMK A01 T10351059  RH  083%=      5-min Rain = 0
KPA1 190846Z 34020KT M04/M06 A3012 RMK A01 T10351059  RH  083%=      5-min Rain = 0
KPA1 190847Z 34018G23KT M04/M06 A3012 RMK A01 T10351060  RH  083%=      5-min Rain = 0
KPA1 190848Z 34017G22KT M04/M06 A3012 RMK A01 T10361060  RH  083%=      5-min Rain = 0
KPA1 190849Z 34018KT M04/M06 A3012 RMK A01 T10361060  RH  084%=      5-min Rain = 0
KPA1 190850Z 34021G27KT M04/M06 A3012 RMK A01 T10361060  RH  084%=      5-min Rain = 0
KPA1 190851Z 34020KT M04/M06 A3012 RMK A01 T10361059  RH  084%=      5-min Rain = 0
KPA1 190852Z 34019KT M04/M06 A3012 RMK A01 T10361059  RH  084%=      5-min Rain = 0
KPA1 190853Z 34018G24KT M04/M06 A3012 RMK A01 T10361059  RH  084%=      5-min Rain = 0
KPA1 190854Z 34021G26KT M04/M06 A3012 RMK A01 T10361059  RH  084%=      5-min Rain = 0
KPA1 190855Z 34021G27KT M04/M06 A3012 RMK A01 T10361059  RH  084%=      5-min Rain = 0
KPA1 190856Z 34022KT M04/M06 A3012 RMK A01 T10361059  RH  084%=      5-min Rain = 0
KPA1 190857Z 34023G30KT M04/M06 A3012 RMK A01 T10361059  RH  084%=      5-min Rain = 0
KPA1 190858Z 34023KT M04/M06 A3012 RMK A01 T10361059  RH  084%=      5-min Rain = 0
KPA1 190859Z 34021KT M04/M06 A3012 RMK A01 T10361059  RH  084%=      5-min Rain = 0
KPA1 190900Z 34022G31KT M04/M06 A3012 RMK A01 T10351058  RH  084%=      5-min Rain = 0
KPA1 190901Z 34023KT M04/M06 A3012 RMK A01 T10351058  RH  084%=      5-min Rain = 0
KPA1 190902Z 34019G24KT M04/M06 A3012 RMK A01 T10351058  RH  084%=      5-min Rain = 0
KPA1 190903Z 34021G27KT M04/M06 A3012 RMK A01 T10351058  RH  084%=      5-min Rain = 0
KPA1 190904Z 34021G26KT M04/M06 A3012 RMK A01 T10351058  RH  084%=      5-min Rain = 0
KPA1 190905Z 34020KT M03/M06 A3013 RMK A01 T10341057  RH  084%=      5-min Rain = 0
KPA1 190906Z 34019KT M03/M06 A3013 RMK A01 T10341057  RH  084%=      5-min Rain = 0
KPA1 190907Z 34025KT M03/M06 A3012 RMK A01 T10341057  RH  084%=      5-min Rain = 0
KPA1 190908Z 34023KT M03/M06 A3012 RMK A01 T10341057  RH  084%=      5-min Rain = 0
KPA1 190909Z 34018KT M03/M06 A3013 RMK A01 T10341057  RH  084%=      5-min Rain = 0
KPA1 190910Z 34019G25KT M03/M06 A3013 RMK A01 T10331057  RH  084%=      5-min Rain = 0
KPA1 190911Z 33019KT M03/M06 A3013 RMK A01 T10331056  RH  084%=      5-min Rain = 0
KPA1 190912Z 34024KT M03/M06 A3013 RMK A01 T10331057  RH  084%=      5-min Rain = 0
KPA1 190913Z 34021KT M03/M06 A3013 RMK A01 T10331057  RH  084%=      5-min Rain = 0
KPA1 190914Z 34024KT M03/M06 A3013 RMK A01 T10331058  RH  083%=      5-min Rain = 0
KPA1 190915Z 34022KT M03/M06 A3013 RMK A01 T10331058  RH  083%=      5-min Rain = 0
KPA1 190916Z 34021KT M03/M06 A3013 RMK A01 T10321058  RH  083%=      5-min Rain = 0
KPA1 190917Z 34021KT M03/M06 A3013 RMK A01 T10331058  RH  083%=      5-min Rain = 0
KPA1 190918Z 34018KT M03/M06 A3013 RMK A01 T10331058  RH  083%=      5-min Rain = 0
KPA1 190919Z 34019G25KT M03/M06 A3013 RMK A01 T10331058  RH  083%=      5-min Rain = 0
KPA1 190920Z 34021KT M03/M06 A3013 RMK A01 T10331058  RH  083%=      5-min Rain = 0
KPA1 190921Z 34020KT M03/M06 A3013 RMK A01 T10331057  RH  083%=      5-min Rain = 0
KPA1 190922Z 34020KT M03/M06 A3013 RMK A01 T10331057  RH  083%=      5-min Rain = 0
KPA1 190923Z 34020G25KT M03/M06 A3013 RMK A01 T10341058  RH  084%=      5-min Rain = 0
KPA1 190924Z 34020G25KT M03/M06 A3013 RMK A01 T10341057  RH  084%=      5-min Rain = 0
KPA1 190925Z 34018KT M03/M06 A3013 RMK A01 T10341058  RH  084%=      5-min Rain = 0
KPA1 190926Z 34017KT M03/M06 A3013 RMK A01 T10341057  RH  084%=      5-min Rain = 0
KPA1 190927Z 34018KT M03/M06 A3013 RMK A01 T10341057  RH  084%=      5-min Rain = 0
KPA1 190928Z 34014KT M03/M06 A3013 RMK A01 T10341057  RH  084%=      5-min Rain = 0
KPA1 190929Z 34017KT M04/M06 A3013 RMK A01 T10351057  RH  085%=      5-min Rain = 0
KPA1 190930Z 34020G25KT M03/M06 A3013 RMK A01 T10341056  RH  085%=      5-min Rain = 0
KPA1 190931Z 33016G21KT M03/M06 A3013 RMK A01 T10341055  RH  085%=      5-min Rain = 0
KPA1 190932Z 34020KT M03/M06 A3013 RMK A01 T10341055  RH  085%=      5-min Rain = 0
KPA1 190933Z 34020KT M03/M06 A3013 RMK A01 T10331055  RH  085%=      5-min Rain = 0
KPA1 190934Z 34018KT M03/M06 A3013 RMK A01 T10331055  RH  085%=      5-min Rain = 0
KPA1 190935Z 34018G23KT M03/M05 A3013 RMK A01 T10331054  RH  085%=      5-min Rain = 0
KPA1 190936Z 34020KT M03/M05 A3013 RMK A01 T10321054  RH  085%=      5-min Rain = 0
KPA1 190937Z 34018KT M03/M05 A3013 RMK A01 T10321054  RH  085%=      5-min Rain = 0
KPA1 190938Z 33018KT M03/M05 A3013 RMK A01 T10321053  RH  085%=      5-min Rain = 0
KPA1 190939Z 34020KT M03/M05 A3013 RMK A01 T10321053  RH  085%=      5-min Rain = 0
KPA1 190940Z 34018KT M03/M05 A3013 RMK A01 T10311053  RH  085%=      5-min Rain = 0
KPA1 190941Z 34017KT M03/M05 A3014 RMK A01 T10311052  RH  085%=      5-min Rain = 0
KPA1 190942Z 34018KT M03/M05 A3013 RMK A01 T10311052  RH  085%=      5-min Rain = 0
KPA1 190943Z 34017KT M03/M05 A3013 RMK A01 T10311052  RH  085%=      5-min Rain = 0
KPA1 190944Z 33016KT M03/M05 A3013 RMK A01 T10311052  RH  086%=      5-min Rain = 0
KPA1 190945Z 34017KT M03/M05 A3013 RMK A01 T10311051  RH  086%=      5-min Rain = 0
KPA1 190946Z 34017KT M03/M05 A3014 RMK A01 T10301051  RH  086%=      5-min Rain = 0
KPA1 190947Z 34021KT M03/M05 A3013 RMK A01 T10301051  RH  086%=      5-min Rain = 0
KPA1 190948Z 34019KT M03/M05 A3013 RMK A01 T10301051  RH  086%=      5-min Rain = 0
KPA1 190949Z 34016G21KT M03/M05 A3013 RMK A01 T10301051  RH  085%=      5-min Rain = 0
KPA1 190950Z 34017G22KT M03/M05 A3013 RMK A01 T10301051  RH  085%=      5-min Rain = 0
KPA1 190951Z 34015G21KT M03/M05 A3013 RMK A01 T10301051  RH  085%=      5-min Rain = 0
KPA1 190952Z 34016G21KT M03/M05 A3013 RMK A01 T10301051  RH  086%=      5-min Rain = 0
KPA1 190953Z 33016KT M03/M05 A3014 RMK A01 T10301051  RH  086%=      5-min Rain = 0
KPA1 190954Z 34017G22KT M03/M05 A3013 RMK A01 T10301050  RH  086%=      5-min Rain = 0
KPA1 190955Z 33017KT M03/M05 A3014 RMK A01 T10301050  RH  086%=      5-min Rain = 0
KPA1 190956Z 33018KT M03/M05 A3014 RMK A01 T10301050  RH  086%=      5-min Rain = 0
KPA1 190957Z 33018KT M03/M05 A3014 RMK A01 T10301050  RH  086%=      5-min Rain = 0
KPA1 190958Z 34019KT M03/M05 A3014 RMK A01 T10301050  RH  086%=      5-min Rain = 0
KPA1 190959Z 33018KT M03/M05 A3014 RMK A01 T10301050  RH  086%=      5-min Rain = 0
KPA1 191000Z 33017KT M03/M05 A3014 RMK A01 T10291049  RH  086%=      5-min Rain = 0
KPA1 191001Z 33016KT M03/M05 A3014 RMK A01 T10301049  RH  086%=      5-min Rain = 0
KPA1 191002Z 33017KT M03/M05 A3014 RMK A01 T10291049  RH  087%=      5-min Rain = 0
KPA1 191003Z 33017KT M03/M05 A3014 RMK A01 T10291049  RH  087%=      5-min Rain = 0
KPA1 191004Z 33016KT M03/M05 A3014 RMK A01 T10291048  RH  087%=      5-min Rain = 0
KPA1 191005Z 33015KT M03/M05 A3014 RMK A01 T10301048  RH  087%=      5-min Rain = 0
KPA1 191006Z 33016KT M03/M05 A3014 RMK A01 T10301048  RH  087%=      5-min Rain = 0
KPA1 191007Z 33016G21KT M03/M05 A3014 RMK A01 T10291048  RH  087%=      5-min Rain = 0
KPA1 191008Z 33019G24KT M03/M05 A3014 RMK A01 T10291048  RH  087%=      5-min Rain = 0
KPA1 191009Z 33018KT M03/M05 A3014 RMK A01 T10291048  RH  087%=      5-min Rain = 0
KPA1 191010Z 33022KT M03/M05 A3014 RMK A01 T10291048  RH  087%=      5-min Rain = 0
KPA1 191011Z 33022G28KT M03/M05 A3014 RMK A01 T10291048  RH  087%=      5-min Rain = 0
KPA1 191012Z 34022KT M03/M05 A3014 RMK A01 T10291049  RH  086%=      5-min Rain = 0
KPA1 191013Z 33020KT M03/M05 A3014 RMK A01 T10291049  RH  086%=      5-min Rain = 0
KPA1 191014Z 33019KT M03/M05 A3014 RMK A01 T10291050  RH  086%=      5-min Rain = 0
KPA1 191015Z 33020G27KT M03/M05 A3014 RMK A01 T10291049  RH  086%=      5-min Rain = 0
KPA1 191016Z 33023KT M03/M05 A3014 RMK A01 T10291050  RH  086%=      5-min Rain = 0
KPA1 191017Z 33023G28KT M03/M05 A3014 RMK A01 T10291050  RH  086%=      5-min Rain = 0
KPA1 191018Z 33020KT M03/M05 A3014 RMK A01 T10291050  RH  085%=      5-min Rain = 0
KPA1 191019Z 33020KT M03/M05 A3014 RMK A01 T10291051  RH  085%=      5-min Rain = 0
KPA1 191020Z 34021G27KT M03/M05 A3014 RMK A01 T10291051  RH  085%=      5-min Rain = 0
KPA1 191021Z 33025KT M03/M05 A3014 RMK A01 T10291051  RH  085%=      5-min Rain = 0
KPA1 191022Z 33022KT M03/M05 A3014 RMK A01 T10301051  RH  085%=      5-min Rain = 0
KPA1 191023Z 33023G28KT M03/M05 A3014 RMK A01 T10301052  RH  085%=      5-min Rain = 0
KPA1 191024Z 33023KT M03/M05 A3014 RMK A01 T10301052  RH  085%=      5-min Rain = 0
KPA1 191025Z 33022KT M03/M05 A3014 RMK A01 T10311053  RH  085%=      5-min Rain = 0
KPA1 191026Z 33021G27KT M03/M05 A3014 RMK A01 T10311053  RH  085%=      5-min Rain = 0
KPA1 191027Z 33020KT M03/M05 A3014 RMK A01 T10311053  RH  085%=      5-min Rain = 0
KPA1 191028Z 33019KT M03/M05 A3014 RMK A01 T10321053  RH  085%=      5-min Rain = 0
KPA1 191029Z 33019KT M03/M05 A3014 RMK A01 T10321053  RH  085%=      5-min Rain = 0
KPA1 191030Z 33021KT M03/M05 A3014 RMK A01 T10331053  RH  086%=      5-min Rain = 0
KPA1 191031Z 33023G29KT M03/M05 A3014 RMK A01 T10331054  RH  086%=      5-min Rain = 0
KPA1 191032Z 33020KT M03/M05 A3014 RMK A01 T10331053  RH  086%=      5-min Rain = 0
KPA1 191033Z 34018KT M03/M05 A3014 RMK A01 T10321053  RH  086%=      5-min Rain = 0
KPA1 191034Z 33021KT M03/M05 A3014 RMK A01 T10321053  RH  086%=      5-min Rain = 0
KPA1 191035Z 33021KT M03/M05 A3014 RMK A01 T10331053  RH  086%=      5-min Rain = 0
KPA1 191036Z 33021KT M03/M05 A3014 RMK A01 T10331053  RH  086%=      5-min Rain = 0
KPA1 191037Z 33021KT M03/M05 A3014 RMK A01 T10331053  RH  086%=      5-min Rain = 0
KPA1 191038Z 33021KT M03/M05 A3014 RMK A01 T10331053  RH  086%=      5-min Rain = 0
KPA1 191039Z 33019G25KT M03/M05 A3014 RMK A01 T10331053  RH  086%=      5-min Rain = 0
KPA1 191040Z 33019KT M03/M05 A3014 RMK A01 T10331053  RH  086%=      5-min Rain = 0
KPA1 191041Z 33021KT M03/M05 A3014 RMK A01 T10331053  RH  086%=      5-min Rain = 0
KPA1 191042Z 33018KT M03/M05 A3014 RMK A01 T10331053  RH  087%=      5-min Rain = 0
KPA1 191043Z 33016KT M03/M05 A3014 RMK A01 T10331052  RH  087%=      5-min Rain = 0
KPA1 191044Z 33018KT M03/M05 A3015 RMK A01 T10331052  RH  087%=      5-min Rain = 0
KPA1 191045Z 33016KT M03/M05 A3014 RMK A01 T10331052  RH  087%=      5-min Rain = 0
KPA1 191046Z 34015KT M03/M05 A3014 RMK A01 T10331052  RH  087%=      5-min Rain = 0
KPA1 191047Z 33016KT M03/M05 A3014 RMK A01 T10331051  RH  087%=      5-min Rain = 0
KPA1 191048Z 33018KT M03/M05 A3014 RMK A01 T10331051  RH  087%=      5-min Rain = 0
KPA1 191049Z 33016G22KT M03/M05 A3014 RMK A01 T10331052  RH  087%=      5-min Rain = 0
KPA1 191050Z 34016KT M03/M05 A3015 RMK A01 T10331052  RH  087%=      5-min Rain = 0
KPA1 191051Z 34015G20KT M03/M05 A3015 RMK A01 T10331052  RH  087%=      5-min Rain = 0
KPA1 191052Z 34016G22KT M03/M05 A3015 RMK A01 T10331052  RH  087%=      5-min Rain = 0
KPA1 191053Z 33019KT M03/M05 A3015 RMK A01 T10331052  RH  087%=      5-min Rain = 0
KPA1 191054Z 33017G22KT M03/M05 A3015 RMK A01 T10331052  RH  087%=      5-min Rain = 0
KPA1 191055Z 33018KT M03/M05 A3015 RMK A01 T10331052  RH  087%=      5-min Rain = 0
KPA1 191056Z 33016KT M03/M05 A3015 RMK A01 T10331052  RH  087%=      5-min Rain = 0
KPA1 191057Z 33016KT M03/M05 A3015 RMK A01 T10331052  RH  087%=      5-min Rain = 0
KPA1 191058Z 33015G20KT M03/M05 A3015 RMK A01 T10331051  RH  087%=      5-min Rain = 0
KPA1 191059Z 34016KT M03/M05 A3015 RMK A01 T10331051  RH  087%=      5-min Rain = 0
KPA1 191100Z 34015KT M03/M05 A3015 RMK A01 T10321051  RH  087%=      5-min Rain = 0
KPA1 191101Z 33016KT M03/M05 A3016 RMK A01 T10321050  RH  087%=      5-min Rain = 0
KPA1 191102Z 33015KT M03/M05 A3016 RMK A01 T10321051  RH  087%=      5-min Rain = 0
KPA1 191103Z 33014G19KT M03/M05 A3016 RMK A01 T10321050  RH  087%=      5-min Rain = 0
KPA1 191104Z 33015KT M03/M05 A3016 RMK A01 T10321050  RH  087%=      5-min Rain = 0
KPA1 191105Z 34013KT M03/M05 A3016 RMK A01 T10321050  RH  088%=      5-min Rain = 0
KPA1 191106Z 33015KT M03/M05 A3016 RMK A01 T10321049  RH  088%=      5-min Rain = 0
KPA1 191107Z 34013KT M03/M05 A3016 RMK A01 T10321049  RH  088%=      5-min Rain = 0
KPA1 191108Z 34015KT M03/M05 A3016 RMK A01 T10321049  RH  088%=      5-min Rain = 0
KPA1 191109Z 33013G18KT M03/M05 A3016 RMK A01 T10311049  RH  088%=      5-min Rain = 0
KPA1 191110Z 33014KT M03/M05 A3016 RMK A01 T10311049  RH  088%=      5-min Rain = 0
KPA1 191111Z 33013KT M03/M05 A3016 RMK A01 T10311048  RH  088%=      5-min Rain = 0
KPA1 191112Z 33016KT M03/M05 A3016 RMK A01 T10311049  RH  088%=      5-min Rain = 0
KPA1 191113Z 33018G23KT M03/M05 A3016 RMK A01 T10321049  RH  088%=      5-min Rain = 0
KPA1 191114Z 33018KT M03/M05 A3016 RMK A01 T10321049  RH  088%=      5-min Rain = 0
KPA1 191115Z 33020KT M03/M05 A3016 RMK A01 T10321050  RH  088%=      5-min Rain = 0
KPA1 191116Z 33016KT M03/M05 A3016 RMK A01 T10321050  RH  088%=      5-min Rain = 0
KPA1 191117Z 33018KT M03/M05 A3016 RMK A01 T10331050  RH  088%=      5-min Rain = 0
KPA1 191118Z 32018KT M03/M05 A3016 RMK A01 T10321050  RH  088%=      5-min Rain = 0
KPA1 191119Z 33018KT M03/M05 A3016 RMK A01 T10331050  RH  088%=      5-min Rain = 0
KPA1 191120Z 33018KT M03/M05 A3016 RMK A01 T10331050  RH  088%=      5-min Rain = 0
KPA1 191121Z 32017KT M03/M05 A3016 RMK A01 T10331050  RH  088%=      5-min Rain = 0
KPA1 191122Z 33017KT M03/M05 A3016 RMK A01 T10331050  RH  088%=      5-min Rain = 0
KPA1 191123Z 33018KT M03/M05 A3016 RMK A01 T10331050  RH  088%=      5-min Rain = 0
KPA1 191124Z 33018KT M03/M05 A3016 RMK A01 T10331050  RH  088%=      5-min Rain = 0
KPA1 191125Z 33020KT M03/M05 A3016 RMK A01 T10331050  RH  088%=      5-min Rain = 0
KPA1 191126Z 33017KT M03/M05 A3016 RMK A01 T10331051  RH  088%=      5-min Rain = 0
KPA1 191127Z 34017KT M03/M05 A3016 RMK A01 T10331050  RH  088%=      5-min Rain = 0
KPA1 191128Z 33021KT M03/M05 A3016 RMK A01 T10331050  RH  088%=      5-min Rain = 0
KPA1 191129Z 34020KT M03/M05 A3016 RMK A01 T10331051  RH  088%=      5-min Rain = 0
KPA1 191130Z 33014KT M03/M05 A3016 RMK A01 T10331050  RH  088%=      5-min Rain = 0
KPA1 191131Z 33018G23KT M03/M05 A3016 RMK A01 T10331050  RH  088%=      5-min Rain = 0
KPA1 191132Z 33018G24KT M03/M05 A3016 RMK A01 T10331050  RH  088%=      5-min Rain = 0
KPA1 191133Z 33016G22KT M03/M05 A3016 RMK A01 T10331050  RH  088%=      5-min Rain = 0
KPA1 191134Z 33018KT M03/M05 A3016 RMK A01 T10331050  RH  088%=      5-min Rain = 0
KPA1 191135Z 33016KT M03/M05 A3016 RMK A01 T10331050  RH  088%=      5-min Rain = 0
KPA1 191136Z 33018KT M03/M05 A3016 RMK A01 T10331050  RH  088%=      5-min Rain = 0
KPA1 191137Z 33019KT M03/M05 A3016 RMK A01 T10331050  RH  088%=      5-min Rain = 0
KPA1 191138Z 33018KT M03/M05 A3016 RMK A01 T10321050  RH  088%=      5-min Rain = 0
KPA1 191139Z 33019KT M03/M05 A3016 RMK A01 T10331050  RH  088%=      5-min Rain = 0
KPA1 191140Z 33022KT M03/M05 A3016 RMK A01 T10321050  RH  088%=      5-min Rain = 0
KPA1 191141Z 33016KT M03/M05 A3016 RMK A01 T10321050  RH  088%=      5-min Rain = 0
KPA1 191142Z 34020G25KT M03/M05 A3016 RMK A01 T10321050  RH  088%=      5-min Rain = 0
KPA1 191143Z 33020KT M03/M05 A3016 RMK A01 T10321050  RH  088%=      5-min Rain = 0
KPA1 191144Z 33020G25KT M03/M05 A3016 RMK A01 T10321050  RH  087%=      5-min Rain = 0
KPA1 191145Z 33020KT M03/M05 A3016 RMK A01 T10321050  RH  087%=      5-min Rain = 0
KPA1 191146Z 33020KT M03/M05 A3016 RMK A01 T10321051  RH  087%=      5-min Rain = 0
KPA1 191147Z 34018G23KT M03/M05 A3016 RMK A01 T10321051  RH  087%=      5-min Rain = 0
KPA1 191148Z 33019KT M03/M05 A3016 RMK A01 T10321050  RH  087%=      5-min Rain = 0
KPA1 191149Z 33020KT M03/M05 A3016 RMK A01 T10321050  RH  087%=      5-min Rain = 0
KPA1 191150Z 33020KT M03/M05 A3016 RMK A01 T10321050  RH  087%=      5-min Rain = 0
KPA1 191151Z 33021KT M03/M05 A3016 RMK A01 T10321050  RH  087%=      5-min Rain = 0
KPA1 191152Z 33019KT M03/M05 A3016 RMK A01 T10321050  RH  087%=      5-min Rain = 0
KPA1 191153Z 33022KT M03/M05 A3016 RMK A01 T10321050  RH  087%=      5-min Rain = 0
KPA1 191154Z 33021G27KT M03/M05 A3016 RMK A01 T10311049  RH  087%=      5-min Rain = 0
KPA1 191155Z 33021G26KT M03/M05 A3016 RMK A01 T10311049  RH  087%=      5-min Rain = 0
KPA1 191156Z 33021KT M03/M05 A3016 RMK A01 T10311050  RH  087%=      5-min Rain = 0
KPA1 191157Z 33020KT M03/M05 A3016 RMK A01 T10311050  RH  087%=      5-min Rain = 0
KPA1 191158Z 33019KT M03/M05 A3016 RMK A01 T10311050  RH  087%=      5-min Rain = 0
KPA1 191159Z 33022KT M03/M05 A3016 RMK A01 T10321050  RH  087%=      5-min Rain = 0
KPA1 191200Z 33021G27KT M03/M05 A3016 RMK A01 T10311050  RH  087%=      5-min Rain = 0
KPA1 191201Z 33017G23KT M03/M05 A3017 RMK A01 T10311050  RH  087%=      5-min Rain = 0
KPA1 191202Z 33020KT M03/M05 A3017 RMK A01 T10311050  RH  087%=      5-min Rain = 0
KPA1 191203Z 33021KT M03/M05 A3017 RMK A01 T10311050  RH  087%=      5-min Rain = 0
KPA1 191204Z 33020KT M03/M05 A3017 RMK A01 T10311050  RH  087%=      5-min Rain = 0
KPA1 191205Z 33020KT M03/M05 A3017 RMK A01 T10311050  RH  087%=      5-min Rain = 0
KPA1 191206Z 33018KT M03/M05 A3017 RMK A01 T10311050  RH  087%=      5-min Rain = 0
KPA1 191207Z 33018KT M03/M05 A3017 RMK A01 T10311049  RH  087%=      5-min Rain = 0
KPA1 191208Z 33018KT M03/M05 A3017 RMK A01 T10311050  RH  087%=      5-min Rain = 0
KPA1 191209Z 33018G23KT M03/M05 A3018 RMK A01 T10311049  RH  087%=      5-min Rain = 0
KPA1 191210Z 33018KT M03/M05 A3017 RMK A01 T10311049  RH  087%=      5-min Rain = 0
KPA1 191211Z 33018KT M03/M05 A3018 RMK A01 T10311050  RH  087%=      5-min Rain = 0
KPA1 191212Z 33018KT M03/M05 A3018 RMK A01 T10311049  RH  087%=      5-min Rain = 0
KPA1 191213Z 33018KT M03/M05 A3018 RMK A01 T10311049  RH  087%=      5-min Rain = 0
KPA1 191214Z 33016KT M03/M05 A3017 RMK A01 T10301049  RH  087%=      5-min Rain = 0
KPA1 191215Z 33021KT M03/M05 A3017 RMK A01 T10301049  RH  087%=      5-min Rain = 0
KPA1 191216Z 33016KT M03/M05 A3018 RMK A01 T10311049  RH  087%=      5-min Rain = 0
KPA1 191217Z 33017KT M03/M05 A3018 RMK A01 T10301049  RH  087%=      5-min Rain = 0
KPA1 191218Z 33021G26KT M03/M05 A3018 RMK A01 T10301049  RH  087%=      5-min Rain = 0
KPA1 191219Z 33021G26KT M03/M05 A3018 RMK A01 T10301050  RH  087%=      5-min Rain = 0
KPA1 191220Z 33020KT M03/M05 A3018 RMK A01 T10301050  RH  086%=      5-min Rain = 0
KPA1 191221Z 33021KT M03/M05 A3018 RMK A01 T10301051  RH  086%=      5-min Rain = 0
KPA1 191222Z 33018G23KT M03/M05 A3018 RMK A01 T10311051  RH  086%=      5-min Rain = 0
KPA1 191223Z 33020KT M03/M05 A3018 RMK A01 T10301051  RH  086%=      5-min Rain = 0
KPA1 191224Z 33023G28KT M03/M05 A3018 RMK A01 T10301051  RH  086%=      5-min Rain = 0
KPA1 191225Z 33021G26KT M03/M05 A3018 RMK A01 T10301051  RH  086%=      5-min Rain = 0
KPA1 191226Z 33021KT M03/M05 A3018 RMK A01 T10301051  RH  086%=      5-min Rain = 0
KPA1 191227Z 33022G28KT M03/M05 A3018 RMK A01 T10301051  RH  086%=      5-min Rain = 0
KPA1 191228Z 34023G28KT M03/M05 A3018 RMK A01 T10311052  RH  085%=      5-min Rain = 0
KPA1 191229Z 34019KT M03/M05 A3018 RMK A01 T10301051  RH  085%=      5-min Rain = 0
KPA1 191230Z 33024KT M03/M05 A3018 RMK A01 T10301051  RH  086%=      5-min Rain = 0
KPA1 191231Z 33024KT M03/M05 A3018 RMK A01 T10301052  RH  085%=      5-min Rain = 0
KPA1 191232Z 34021KT M03/M05 A3018 RMK A01 T10301052  RH  085%=      5-min Rain = 0
KPA1 191233Z 33018KT M03/M05 A3018 RMK A01 T10311052  RH  085%=      5-min Rain = 0
KPA1 191234Z 34017G22KT M03/M05 A3018 RMK A01 T10311052  RH  085%=      5-min Rain = 0
KPA1 191235Z 33020G25KT M03/M05 A3018 RMK A01 T10311052  RH  086%=      5-min Rain = 0
KPA1 191236Z 34022KT M03/M05 A3018 RMK A01 T10311052  RH  086%=      5-min Rain = 0
KPA1 191237Z 34020KT M03/M05 A3018 RMK A01 T10311052  RH  086%=      5-min Rain = 0
KPA1 191238Z 34018KT M03/M05 A3018 RMK A01 T10311052  RH  086%=      5-min Rain = 0
KPA1 191239Z 34019G26KT M03/M05 A3018 RMK A01 T10311052  RH  086%=      5-min Rain = 0
KPA1 191240Z 33021KT M03/M05 A3018 RMK A01 T10311052  RH  086%=      5-min Rain = 0
KPA1 191241Z 33021KT M03/M05 A3018 RMK A01 T10321052  RH  086%=      5-min Rain = 0
KPA1 191242Z 33023G29KT M03/M05 A3018 RMK A01 T10311052  RH  086%=      5-min Rain = 0
KPA1 191243Z 34020KT M03/M05 A3018 RMK A01 T10321052  RH  086%=      5-min Rain = 0
KPA1 191244Z 33019KT M03/M05 A3018 RMK A01 T10311052  RH  086%=      5-min Rain = 0
KPA1 191245Z 34020KT M03/M05 A3018 RMK A01 T10311052  RH  086%=      5-min Rain = 0
KPA1 191246Z 33022KT M03/M05 A3018 RMK A01 T10311051  RH  086%=      5-min Rain = 0
KPA1 191247Z 33022G27KT M03/M05 A3018 RMK A01 T10311052  RH  086%=      5-min Rain = 0
KPA1 191248Z 34019KT M03/M05 A3018 RMK A01 T10311052  RH  086%=      5-min Rain = 0
KPA1 191249Z 34020KT M03/M05 A3019 RMK A01 T10311052  RH  086%=      5-min Rain = 0
KPA1 191250Z 34021G26KT M03/M05 A3019 RMK A01 T10311052  RH  086%=      5-min Rain = 0
KPA1 191251Z 33020KT M03/M05 A3019 RMK A01 T10311052  RH  086%=      5-min Rain = 0
KPA1 191252Z 33019KT M03/M05 A3019 RMK A01 T10311051  RH  086%=      5-min Rain = 0
KPA1 191253Z 34020KT M03/M05 A3019 RMK A01 T10311051  RH  086%=      5-min Rain = 0
KPA1 191254Z 34020KT M03/M05 A3019 RMK A01 T10311051  RH  086%=      5-min Rain = 0
KPA1 191255Z 33019KT M03/M05 A3019 RMK A01 T10311051  RH  086%=      5-min Rain = 0
KPA1 191256Z 33017KT M03/M05 A3019 RMK A01 T10311051  RH  086%=      5-min Rain = 0
KPA1 191257Z 33017KT M03/M05 A302 RMK A01 T10311051  RH  086%=      5-min Rain = 0
KPA1 191258Z 33021G26KT M03/M05 A302 RMK A01 T10311050  RH  087%=      5-min Rain = 0
KPA1 191259Z 34020G25KT M03/M05 A302 RMK A01 T10311050  RH  086%=      5-min Rain = 0
KPA1 191300Z 33019KT M03/M05 A302 RMK A01 T10301050  RH  086%=      5-min Rain = 0
KPA1 191301Z 33018KT M03/M05 A302 RMK A01 T10311050  RH  086%=      5-min Rain = 0
KPA1 191302Z 33018KT M03/M05 A302 RMK A01 T10311050  RH  087%=      5-min Rain = 0
KPA1 191303Z 33018KT M03/M05 A302 RMK A01 T10301050  RH  087%=      5-min Rain = 0
KPA1 191304Z 33019KT M03/M05 A302 RMK A01 T10311050  RH  087%=      5-min Rain = 0
KPA1 191305Z 34018G24KT M03/M05 A302 RMK A01 T10311050  RH  087%=      5-min Rain = 0
KPA1 191306Z 34019KT M03/M05 A302 RMK A01 T10311050  RH  087%=      5-min Rain = 0
KPA1 191307Z 33018G24KT M03/M05 A302 RMK A01 T10311050  RH  086%=      5-min Rain = 0
KPA1 191308Z 33021KT M03/M05 A302 RMK A01 T10311051  RH  086%=      5-min Rain = 0
KPA1 191309Z 33019KT M03/M05 A302 RMK A01 T10311051  RH  086%=      5-min Rain = 0
KPA1 191310Z 34018KT M03/M05 A3021 RMK A01 T10301051  RH  086%=      5-min Rain = 0
KPA1 191311Z 34019KT M03/M05 A3021 RMK A01 T10311050  RH  086%=      5-min Rain = 0
KPA1 191312Z 33016KT M03/M05 A3021 RMK A01 T10301050  RH  086%=      5-min Rain = 0
KPA1 191313Z 34019KT M03/M05 A3021 RMK A01 T10301050  RH  086%=      5-min Rain = 0
KPA1 191314Z 33015KT M03/M05 A3021 RMK A01 T10301050  RH  086%=      5-min Rain = 0
KPA1 191315Z 33017KT M03/M05 A3021 RMK A01 T10301049  RH  087%=      5-min Rain = 0
KPA1 191316Z 33017G22KT M03/M05 A3021 RMK A01 T10301050  RH  087%=      5-min Rain = 0
KPA1 191317Z 33016KT M03/M05 A3021 RMK A01 T10311050  RH  087%=      5-min Rain = 0
KPA1 191318Z 33015KT M03/M05 A3021 RMK A01 T10311050  RH  087%=      5-min Rain = 0
KPA1 191319Z 34016KT M03/M05 A3021 RMK A01 T10311050  RH  087%=      5-min Rain = 0
KPA1 191320Z 33016KT M03/M05 A3021 RMK A01 T10301049  RH  087%=      5-min Rain = 0
KPA1 191321Z 33017G22KT M03/M05 A3021 RMK A01 T10301049  RH  087%=      5-min Rain = 0
KPA1 191322Z 33013KT M03/M05 A3022 RMK A01 T10301050  RH  086%=      5-min Rain = 0
KPA1 191323Z 33016KT M03/M05 A3022 RMK A01 T10301049  RH  087%=      5-min Rain = 0
KPA1 191324Z 33014G19KT M03/M05 A3021 RMK A01 T10301049  RH  086%=      5-min Rain = 0
KPA1 191325Z 33015KT M03/M05 A3022 RMK A01 T10301049  RH  086%=      5-min Rain = 0
KPA1 191326Z 34015KT M03/M05 A3022 RMK A01 T10301050  RH  086%=      5-min Rain = 0
KPA1 191327Z 34016KT M03/M05 A3022 RMK A01 T10291049  RH  086%=      5-min Rain = 0
KPA1 191328Z 33018KT M03/M05 A3022 RMK A01 T10291050  RH  086%=      5-min Rain = 0
KPA1 191329Z 33019KT M03/M05 A3022 RMK A01 T10291050  RH  085%=      5-min Rain = 0
KPA1 191330Z 33016KT M03/M05 A3022 RMK A01 T10291050  RH  085%=      5-min Rain = 0
KPA1 191331Z 33017KT M03/M05 A3022 RMK A01 T10291050  RH  085%=      5-min Rain = 0
KPA1 191332Z 33014G19KT M03/M05 A3022 RMK A01 T10281049  RH  086%=      5-min Rain = 0
KPA1 191333Z 33015KT M03/M05 A3022 RMK A01 T10281049  RH  086%=      5-min Rain = 0
KPA1 191334Z 33015KT M03/M05 A3022 RMK A01 T10281049  RH  086%=      5-min Rain = 0
KPA1 191335Z 33018G23KT M03/M05 A3022 RMK A01 T10291049  RH  086%=      5-min Rain = 0
KPA1 191336Z 34014KT M03/M05 A3022 RMK A01 T10291049  RH  086%=      5-min Rain = 0
KPA1 191337Z 33013G20KT M03/M05 A3022 RMK A01 T10281049  RH  086%=      5-min Rain = 0
KPA1 191338Z 33016KT M03/M05 A3022 RMK A01 T10291049  RH  086%=      5-min Rain = 0
KPA1 191339Z 34015KT M03/M05 A3022 RMK A01 T10281048  RH  086%=      5-min Rain = 0
KPA1 191340Z 33013KT M03/M05 A3022 RMK A01 T10291049  RH  086%=      5-min Rain = 0
KPA1 191341Z 33013KT M03/M05 A3022 RMK A01 T10291048  RH  086%=      5-min Rain = 0
KPA1 191342Z 33016KT M03/M05 A3022 RMK A01 T10291048  RH  087%=      5-min Rain = 0
KPA1 191343Z 33015G21KT M03/M05 A3022 RMK A01 T10291048  RH  087%=      5-min Rain = 0
KPA1 191344Z 33019G24KT M03/M05 A3022 RMK A01 T10291048  RH  087%=      5-min Rain = 0
KPA1 191345Z 34017KT M03/M05 A3022 RMK A01 T10291048  RH  086%=      5-min Rain = 0
KPA1 191346Z 34014KT M03/M05 A3022 RMK A01 T10291048  RH  086%=      5-min Rain = 0
KPA1 191347Z 33017KT M03/M05 A3022 RMK A01 T10281047  RH  087%=      5-min Rain = 0
KPA1 191348Z 34015KT M03/M05 A3022 RMK A01 T10281047  RH  087%=      5-min Rain = 0
KPA1 191349Z 33013KT M03/M05 A3022 RMK A01 T10291047  RH  087%=      5-min Rain = 0
KPA1 191350Z 34017KT M03/M05 A3022 RMK A01 T10281047  RH  087%=      5-min Rain = 0
KPA1 191351Z 34015KT M03/M05 A3022 RMK A01 T10291047  RH  087%=      5-min Rain = 0
KPA1 191352Z 34019G24KT M03/M05 A3022 RMK A01 T10291048  RH  087%=      5-min Rain = 0
KPA1 191353Z 34018G23KT M03/M05 A3022 RMK A01 T10291048  RH  087%=      5-min Rain = 0
KPA1 191354Z 34017KT M03/M05 A3022 RMK A01 T10291048  RH  087%=      5-min Rain = 0
KPA1 191355Z 34019KT M03/M05 A3022 RMK A01 T10291048  RH  087%=      5-min Rain = 0
KPA1 191356Z 33016G22KT M03/M05 A3022 RMK A01 T10291048  RH  087%=      5-min Rain = 0
KPA1 191357Z 34018G23KT M03/M05 A3022 RMK A01 T10291048  RH  087%=      5-min Rain = 0
KPA1 191358Z 33016KT M03/M05 A3022 RMK A01 T10281048  RH  087%=      5-min Rain = 0
KPA1 191359Z 34019G24KT M03/M05 A3022 RMK A01 T10291048  RH  087%=      5-min Rain = 0
KPA1 191400Z 34022KT M03/M05 A3022 RMK A01 T10281048  RH  086%=      5-min Rain = 0
KPA1 191401Z 33015G21KT M03/M05 A3022 RMK A01 T10291049  RH  086%=      5-min Rain = 0
KPA1 191402Z 33018KT M03/M05 A3023 RMK A01 T10291049  RH  086%=      5-min Rain = 0
KPA1 191403Z 33020KT M03/M05 A3023 RMK A01 T10291049  RH  086%=      5-min Rain = 0
KPA1 191404Z 34019KT M03/M05 A3023 RMK A01 T10281049  RH  086%=      5-min Rain = 0
KPA1 191405Z 34018KT M03/M05 A3023 RMK A01 T10281049  RH  086%=      5-min Rain = 0
KPA1 191406Z 34019KT M03/M05 A3023 RMK A01 T10291049  RH  086%=      5-min Rain = 0
KPA1 191407Z 34019G25KT M03/M05 A3023 RMK A01 T10291049  RH  086%=      5-min Rain = 0
KPA1 191408Z 33017KT M03/M05 A3023 RMK A01 T10291049  RH  086%=      5-min Rain = 0
KPA1 191409Z 33018KT M03/M05 A3023 RMK A01 T10291049  RH  086%=      5-min Rain = 0
KPA1 191410Z 34020KT M03/M05 A3023 RMK A01 T10291049  RH  086%=      5-min Rain = 0
KPA1 191411Z 33021G27KT M03/M05 A3023 RMK A01 T10291049  RH  086%=      5-min Rain = 0
KPA1 191412Z 34021G27KT M03/M05 A3023 RMK A01 T10291050  RH  086%=      5-min Rain = 0
KPA1 191413Z 33019G24KT M03/M05 A3023 RMK A01 T10291050  RH  085%=      5-min Rain = 0
KPA1 191414Z 34022KT M03/M05 A3023 RMK A01 T10291050  RH  085%=      5-min Rain = 0
KPA1 191415Z 33016KT M03/M05 A3023 RMK A01 T10291050  RH  086%=      5-min Rain = 0
KPA1 191416Z 33018KT M03/M05 A3023 RMK A01 T10301050  RH  086%=      5-min Rain = 0
KPA1 191417Z 33018KT M03/M05 A3023 RMK A01 T10301050  RH  086%=      5-min Rain = 0
KPA1 191418Z 33020KT M03/M05 A3023 RMK A01 T10301050  RH  086%=      5-min Rain = 0
KPA1 191419Z 33019KT M03/M05 A3023 RMK A01 T10301050  RH  086%=      5-min Rain = 0
KPA1 191420Z 33023KT M03/M05 A3023 RMK A01 T10301051  RH  086%=      5-min Rain = 0
KPA1 191421Z 34021G29KT M03/M05 A3023 RMK A01 T10301051  RH  085%=      5-min Rain = 0
KPA1 191422Z 33021G26KT M03/M05 A3023 RMK A01 T10301052  RH  085%=      5-min Rain = 0
KPA1 191423Z 33022KT M03/M05 A3023 RMK A01 T10301052  RH  085%=      5-min Rain = 0
KPA1 191424Z 34020G25KT M03/M05 A3023 RMK A01 T10301051  RH  085%=      5-min Rain = 0
KPA1 191425Z 33021G26KT M03/M05 A3023 RMK A01 T10301051  RH  085%=      5-min Rain = 0
KPA1 191426Z 33019KT M03/M05 A3024 RMK A01 T10291050  RH  086%=      5-min Rain = 0
KPA1 191427Z 34020G26KT M03/M05 A3023 RMK A01 T10291050  RH  085%=      5-min Rain = 0
KPA1 191428Z 33020KT M03/M05 A3023 RMK A01 T10291050  RH  085%=      5-min Rain = 0
KPA1 191429Z 33019KT M03/M05 A3024 RMK A01 T10291050  RH  085%=      5-min Rain = 0
KPA1 191430Z 33021KT M03/M05 A3024 RMK A01 T10291050  RH  086%=      5-min Rain = 0
KPA1 191431Z 33020KT M03/M05 A3024 RMK A01 T10291050  RH  085%=      5-min Rain = 0
KPA1 191432Z 33019KT M03/M05 A3024 RMK A01 T10291051  RH  085%=      5-min Rain = 0
KPA1 191433Z 33020KT M03/M05 A3024 RMK A01 T10291051  RH  085%=      5-min Rain = 0
KPA1 191434Z 33017KT M03/M05 A3024 RMK A01 T10301051  RH  085%=      5-min Rain = 0
KPA1 191435Z 33015KT M03/M05 A3024 RMK A01 T10301051  RH  086%=      5-min Rain = 0
KPA1 191436Z 33017KT M03/M05 A3024 RMK A01 T10311051  RH  086%=      5-min Rain = 0
KPA1 191437Z 33015KT M03/M05 A3024 RMK A01 T10311051  RH  086%=      5-min Rain = 0
KPA1 191438Z 33015KT M03/M05 A3025 RMK A01 T10311051  RH  086%=      5-min Rain = 0
KPA1 191439Z 34015KT M03/M05 A3025 RMK A01 T10311051  RH  086%=      5-min Rain = 0
KPA1 191440Z 33018KT M03/M05 A3025 RMK A01 T10311051  RH  086%=      5-min Rain = 0
KPA1 191441Z 33018KT M03/M05 A3025 RMK A01 T10311051  RH  086%=      5-min Rain = 0
KPA1 191442Z 33016KT M03/M05 A3025 RMK A01 T10311051  RH  086%=      5-min Rain = 0
KPA1 191443Z 33017KT M03/M05 A3025 RMK A01 T10311051  RH  086%=      5-min Rain = 0
KPA1 191444Z 33019KT M03/M05 A3025 RMK A01 T10311050  RH  086%=      5-min Rain = 0
KPA1 191445Z 33016KT M03/M05 A3025 RMK A01 T10301050  RH  086%=      5-min Rain = 0
KPA1 191446Z 33019KT M03/M05 A3025 RMK A01 T10301050  RH  086%=      5-min Rain = 0
KPA1 191447Z 32017G23KT M03/M05 A3025 RMK A01 T10301050  RH  086%=      5-min Rain = 0
KPA1 191448Z 32018G23KT M03/M05 A3025 RMK A01 T10301050  RH  086%=      5-min Rain = 0
KPA1 191449Z 32019KT M03/M05 A3025 RMK A01 T10301051  RH  086%=      5-min Rain = 0
KPA1 191450Z 32019KT M03/M05 A3025 RMK A01 T10291050  RH  085%=      5-min Rain = 0
KPA1 191451Z 32017G22KT M03/M05 A3025 RMK A01 T10291051  RH  085%=      5-min Rain = 0
KPA1 191452Z 33020KT M03/M05 A3025 RMK A01 T10291051  RH  085%=      5-min Rain = 0
KPA1 191453Z 32019G24KT M03/M05 A3025 RMK A01 T10291051  RH  085%=      5-min Rain = 0
KPA1 191454Z 32016KT M03/M05 A3026 RMK A01 T10291051  RH  085%=      5-min Rain = 0
KPA1 191455Z 33019KT M03/M05 A3026 RMK A01 T10291051  RH  085%=      5-min Rain = 0
KPA1 191456Z 33019G24KT M03/M05 A3026 RMK A01 T10281050  RH  085%=      5-min Rain = 0
KPA1 191457Z 33017KT M03/M05 A3026 RMK A01 T10271050  RH  085%=      5-min Rain = 0
KPA1 191458Z 33016KT M03/M05 A3026 RMK A01 T10271049  RH  085%=      5-min Rain = 0
KPA1 191459Z 33019G24KT M03/M05 A3026 RMK A01 T10271049  RH  085%=      5-min Rain = 0
KPA1 191500Z 33021KT M03/M05 A3026 RMK A01 T10261049  RH  085%=      5-min Rain = 0
KPA1 191501Z 33018KT M03/M05 A3026 RMK A01 T10261048  RH  085%=      5-min Rain = 0
KPA1 191502Z 33020KT M03/M05 A3026 RMK A01 T10261049  RH  084%=      5-min Rain = 0
KPA1 191503Z 33019KT M03/M05 A3026 RMK A01 T10261049  RH  084%=      5-min Rain = 0
KPA1 191504Z 33018KT M03/M05 A3026 RMK A01 T10251048  RH  084%=      5-min Rain = 0
KPA1 191505Z 34018KT M03/M05 A3026 RMK A01 T10261048  RH  084%=      5-min Rain = 0
KPA1 191506Z 33017KT M03/M05 A3026 RMK A01 T10261048  RH  085%=      5-min Rain = 0
KPA1 191507Z 34012KT M03/M05 A3026 RMK A01 T10251048  RH  085%=      5-min Rain = 0
KPA1 191508Z 34014G19KT M03/M05 A3026 RMK A01 T10251047  RH  085%=      5-min Rain = 0
KPA1 191509Z 33020KT M03/M05 A3026 RMK A01 T10251048  RH  085%=      5-min Rain = 0
KPA1 191510Z 33017KT M03/M05 A3026 RMK A01 T10251048  RH  084%=      5-min Rain = 0
KPA1 191511Z 33017KT M03/M05 A3026 RMK A01 T10251048  RH  084%=      5-min Rain = 0
KPA1 191512Z 33016KT M03/M05 A3026 RMK A01 T10251048  RH  085%=      5-min Rain = 0
KPA1 191513Z 33015KT M03/M05 A3027 RMK A01 T10261048  RH  085%=      5-min Rain = 0
KPA1 191514Z 33017KT M03/M05 A3027 RMK A01 T10261047  RH  085%=      5-min Rain = 0
KPA1 191515Z 33013KT M03/M05 A3027 RMK A01 T10251047  RH  085%=      5-min Rain = 0
KPA1 191516Z 33016KT M03/M05 A3027 RMK A01 T10261047  RH  085%=      5-min Rain = 0
KPA1 191517Z 33016KT M03/M05 A3027 RMK A01 T10251047  RH  085%=      5-min Rain = 0
KPA1 191518Z 33017KT M03/M05 A3027 RMK A01 T10261047  RH  085%=      5-min Rain = 0
KPA1 191519Z 33015KT M03/M05 A3027 RMK A01 T10251047  RH  085%=      5-min Rain = 0
KPA1 191520Z 33014KT M03/M05 A3028 RMK A01 T10251047  RH  085%=      5-min Rain = 0
KPA1 191521Z 33014KT M03/M05 A3028 RMK A01 T10251047  RH  085%=      5-min Rain = 0
KPA1 191522Z 33017KT M03/M05 A3028 RMK A01 T10251047  RH  085%=      5-min Rain = 0
KPA1 191523Z 33014KT M03/M05 A3028 RMK A01 T10251047  RH  085%=      5-min Rain = 0
KPA1 191524Z 33015G20KT M03/M05 A3028 RMK A01 T10251047  RH  085%=      5-min Rain = 0
KPA1 191525Z 33017KT M03/M05 A3027 RMK A01 T10251047  RH  085%=      5-min Rain = 0
KPA1 191526Z 33015KT M03/M05 A3028 RMK A01 T10251047  RH  085%=      5-min Rain = 0
KPA1 191527Z 33012KT M03/M05 A3028 RMK A01 T10251047  RH  085%=      5-min Rain = 0
KPA1 191528Z 33016KT M03/M05 A3028 RMK A01 T10251047  RH  085%=      5-min Rain = 0
KPA1 191529Z 33016KT M03/M05 A3028 RMK A01 T10251047  RH  085%=      5-min Rain = 0
KPA1 191530Z 33013KT M03/M05 A3028 RMK A01 T10251047  RH  085%=      5-min Rain = 0
KPA1 191531Z 33015KT M03/M05 A3028 RMK A01 T10251046  RH  086%=      5-min Rain = 0
KPA1 191532Z 32010KT M03/M05 A3028 RMK A01 T10251046  RH  086%=      5-min Rain = 0
KPA1 191533Z 33016G21KT M03/M05 A3028 RMK A01 T10261046  RH  086%=      5-min Rain = 0
KPA1 191534Z 33017KT M03/M05 A3028 RMK A01 T10251046  RH  086%=      5-min Rain = 0
KPA1 191535Z 33014KT M03/M05 A3028 RMK A01 T10261046  RH  086%=      5-min Rain = 0
KPA1 191536Z 33009KT M03/M05 A3028 RMK A01 T10261046  RH  086%=      5-min Rain = 0
KPA1 191537Z 33010KT M03/M05 A3028 RMK A01 T10261045  RH  087%=      5-min Rain = 0
KPA1 191538Z 32011KT M03/M05 A3028 RMK A01 T10261045  RH  087%=      5-min Rain = 0
KPA1 191539Z 32011KT M03/M05 A3028 RMK A01 T10261045  RH  087%=      5-min Rain = 0
KPA1 191540Z 33011KT M03/M04 A3028 RMK A01 T10261044  RH  087%=      5-min Rain = 0
KPA1 191541Z 33010KT M03/M04 A3028 RMK A01 T10261044  RH  087%=      5-min Rain = 0
KPA1 191542Z 33011KT M03/M04 A3028 RMK A01 T10261044  RH  087%=      5-min Rain = 0
KPA1 191543Z 33012KT M03/M04 A3028 RMK A01 T10261044  RH  087%=      5-min Rain = 0
KPA1 191544Z 32012KT M03/M05 A3028 RMK A01 T10261045  RH  087%=      5-min Rain = 0
KPA1 191545Z 33012KT M03/M05 A3028 RMK A01 T10261045  RH  087%=      5-min Rain = 0
KPA1 191546Z 33012KT M03/M04 A3028 RMK A01 T10251044  RH  087%=      5-min Rain = 0
KPA1 191547Z 33012KT M03/M04 A3028 RMK A01 T10251043  RH  087%=      5-min Rain = 0
KPA1 191548Z 34010KT M03/M04 A3029 RMK A01 T10251043  RH  087%=      5-min Rain = 0
KPA1 191549Z 35013KT M02/M04 A3029 RMK A01 T10241043  RH  087%=      5-min Rain = 0
KPA1 191550Z 34015KT M02/M04 A3029 RMK A01 T10231043  RH  086%=      5-min Rain = 0
KPA1 191551Z 34017KT M02/M04 A3029 RMK A01 T10231044  RH  086%=      5-min Rain = 0
KPA1 191552Z 34018KT M02/M04 A3029 RMK A01 T10231044  RH  085%=      5-min Rain = 0
KPA1 191553Z 34018KT M02/M05 A3029 RMK A01 T10241046  RH  085%=      5-min Rain = 0
KPA1 191554Z 34017KT M02/M05 A3029 RMK A01 T10241045  RH  085%=      5-min Rain = 0
KPA1 191555Z 35014KT M02/M05 A3029 RMK A01 T10241046  RH  085%=      5-min Rain = 0
KPA1 191556Z 35016KT M02/M05 A3029 RMK A01 T10241046  RH  085%=      5-min Rain = 0
KPA1 191557Z 34018KT M02/M05 A3029 RMK A01 T10241046  RH  085%=      5-min Rain = 0
KPA1 191558Z 34018KT M02/M05 A3029 RMK A01 T10241047  RH  084%=      5-min Rain = 0
KPA1 191559Z 34016KT M02/M05 A3029 RMK A01 T10241047  RH  085%=      5-min Rain = 0
KPA1 191600Z 34019KT M03/M05 A3029 RMK A01 T10251047  RH  085%=      5-min Rain = 0
KPA1 191601Z 34017KT M02/M05 A3029 RMK A01 T10241047  RH  085%=      5-min Rain = 0
KPA1 191602Z 34018KT M02/M05 A3029 RMK A01 T10241047  RH  085%=      5-min Rain = 0
KPA1 191603Z 34018KT M03/M05 A3029 RMK A01 T10251047  RH  085%=      5-min Rain = 0
KPA1 191604Z 34016KT M03/M05 A3029 RMK A01 T10251047  RH  085%=      5-min Rain = 0
KPA1 191605Z 34017KT M03/M05 A3029 RMK A01 T10251046  RH  085%=      5-min Rain = 0
KPA1 191606Z 34018KT M02/M05 A3029 RMK A01 T10241046  RH  085%=      5-min Rain = 0
KPA1 191607Z 34016KT M02/M05 A3029 RMK A01 T10241046  RH  085%=      5-min Rain = 0
KPA1 191608Z 34015KT M02/M05 A303 RMK A01 T10241046  RH  085%=      5-min Rain = 0
KPA1 191609Z 33017KT M02/M05 A303 RMK A01 T10241045  RH  085%=      5-min Rain = 0
KPA1 191610Z 34017G23KT M02/M05 A303 RMK A01 T10241045  RH  086%=      5-min Rain = 0
KPA1 191611Z 34017KT M02/M05 A303 RMK A01 T10241045  RH  085%=      5-min Rain = 0
KPA1 191612Z 34016KT M02/M05 A303 RMK A01 T10241046  RH  085%=      5-min Rain = 0
KPA1 191613Z 34016KT M02/M05 A303 RMK A01 T10241046  RH  085%=      5-min Rain = 0
KPA1 191614Z 33020KT M02/M05 A303 RMK A01 T10241045  RH  085%=      5-min Rain = 0
KPA1 191615Z 34018KT M02/M05 A303 RMK A01 T10241047  RH  085%=      5-min Rain = 0
KPA1 191616Z 34019KT M02/M05 A303 RMK A01 T10241047  RH  085%=      5-min Rain = 0
KPA1 191617Z 34017KT M02/M05 A303 RMK A01 T10241046  RH  085%=      5-min Rain = 0
KPA1 191618Z 34016KT M02/M05 A303 RMK A01 T10241046  RH  085%=      5-min Rain = 0
KPA1 191619Z 34014KT M03/M05 A3031 RMK A01 T10251046  RH  085%=      5-min Rain = 0
KPA1 191620Z 35017KT M02/M05 A3031 RMK A01 T10241045  RH  085%=      5-min Rain = 0
KPA1 191621Z 35015KT M02/M05 A303 RMK A01 T10241046  RH  085%=      5-min Rain = 0
KPA1 191622Z 35015KT M03/M05 A3031 RMK A01 T10251047  RH  085%=      5-min Rain = 0
KPA1 191623Z 35016KT M03/M05 A3031 RMK A01 T10251046  RH  085%=      5-min Rain = 0
KPA1 191624Z 35015KT M03/M05 A3031 RMK A01 T10251046  RH  085%=      5-min Rain = 0
KPA1 191625Z 35013KT M03/M05 A3031 RMK A01 T10251046  RH  085%=      5-min Rain = 0
KPA1 191626Z 35017KT M03/M05 A3031 RMK A01 T10251046  RH  085%=      5-min Rain = 0
KPA1 191627Z 35014KT M03/M05 A3031 RMK A01 T10261048  RH  085%=      5-min Rain = 0
KPA1 191628Z 34011KT M03/M05 A3031 RMK A01 T10261047  RH  086%=      5-min Rain = 0
KPA1 191629Z 35014KT M03/M05 A3031 RMK A01 T10251045  RH  086%=      5-min Rain = 0
KPA1 191630Z 34014KT M03/M05 A3031 RMK A01 T10251045  RH  086%=      5-min Rain = 0
KPA1 191631Z 34016KT M02/M05 A3031 RMK A01 T10241045  RH  086%=      5-min Rain = 0
KPA1 191632Z 34016KT M03/M05 A3031 RMK A01 T10251047  RH  085%=      5-min Rain = 0
KPA1 191633Z 35013KT M03/M05 A3032 RMK A01 T10261047  RH  085%=      5-min Rain = 0
KPA1 191634Z 35012KT M03/M05 A3032 RMK A01 T10261046  RH  086%=      5-min Rain = 0
KPA1 191635Z 34016KT M03/M05 A3032 RMK A01 T10261046  RH  086%=      5-min Rain = 0
KPA1 191636Z 34016KT M03/M05 A3032 RMK A01 T10261046  RH  086%=      5-min Rain = 0
KPA1 191637Z 35016KT M03/M05 A3032 RMK A01 T10261046  RH  086%=      5-min Rain = 0
KPA1 191638Z 34015KT M03/M05 A3032 RMK A01 T10261046  RH  086%=      5-min Rain = 0
KPA1 191639Z 34015KT M03/M05 A3032 RMK A01 T10261045  RH  086%=      5-min Rain = 0
KPA1 191640Z 34014KT M03/M05 A3032 RMK A01 T10251046  RH  086%=      5-min Rain = 0
KPA1 191641Z 33015KT M03/M05 A3032 RMK A01 T10251046  RH  086%=      5-min Rain = 0
KPA1 191642Z 34016G21KT M03/M05 A3032 RMK A01 T10251046  RH  086%=      5-min Rain = 0
KPA1 191643Z 35016KT M03/M05 A3032 RMK A01 T10251046  RH  086%=      5-min Rain = 0
KPA1 191644Z 34018KT M03/M05 A3032 RMK A01 T10251046  RH  086%=      5-min Rain = 0
KPA1 191645Z 34017KT M03/M05 A3032 RMK A01 T10251046  RH  086%=      5-min Rain = 0
KPA1 191646Z 34017KT M03/M05 A3032 RMK A01 T10261046  RH  086%=      5-min Rain = 0
KPA1 191647Z 35015G20KT M03/M05 A3032 RMK A01 T10261046  RH  086%=      5-min Rain = 0
KPA1 191648Z 35016KT M03/M05 A3032 RMK A01 T10261046  RH  086%=      5-min Rain = 0
KPA1 191649Z 34015KT M03/M05 A3032 RMK A01 T10261045  RH  086%=      5-min Rain = 0
KPA1 191650Z 33015KT M03/M05 A3032 RMK A01 T10251045  RH  087%=      5-min Rain = 0
KPA1 191651Z 34016KT M03/M04 A3032 RMK A01 T10251044  RH  087%=      5-min Rain = 0
KPA1 191652Z 34017KT M02/M04 A3032 RMK A01 T10241044  RH  087%=      5-min Rain = 0
KPA1 191653Z 34017KT M02/M04 A3032 RMK A01 T10241044  RH  087%=      5-min Rain = 0
KPA1 191654Z 34016KT M03/M05 A3032 RMK A01 T10251045  RH  086%=      5-min Rain = 0
KPA1 191655Z 34015KT M03/M05 A3032 RMK A01 T10251045  RH  086%=      5-min Rain = 0
KPA1 191656Z 35017KT M03/M04 A3032 RMK A01 T10251044  RH  087%=      5-min Rain = 0
KPA1 191657Z 34020KT M02/M04 A3032 RMK A01 T10241044  RH  086%=      5-min Rain = 0
KPA1 191658Z 34018KT M02/M05 A3032 RMK A01 T10241045  RH  086%=      5-min Rain = 0
KPA1 191659Z 34018KT M03/M05 A3032 RMK A01 T10251045  RH  086%=      5-min Rain = 0
KPA1 191700Z 34018KT M03/M05 A3032 RMK A01 T10251045  RH  086%=      5-min Rain = 0
KPA1 191701Z 33018KT M02/M04 A3032 RMK A01 T10241044  RH  086%=      5-min Rain = 0
KPA1 191702Z 34019KT M02/M04 A3032 RMK A01 T10241044  RH  086%=      5-min Rain = 0
KPA1 191703Z 33017KT M02/M04 A3032 RMK A01 T10241044  RH  086%=      5-min Rain = 0
KPA1 191704Z 33015KT M02/M04 A3032 RMK A01 T10241044  RH  086%=      5-min Rain = 0
KPA1 191705Z 33019KT M02/M04 A3032 RMK A01 T10231043  RH  086%=      5-min Rain = 0
KPA1 191706Z 33015G20KT M02/M04 A3032 RMK A01 T10231044  RH  086%=      5-min Rain = 0
KPA1 191707Z 33016KT M02/M04 A3032 RMK A01 T10231043  RH  086%=      5-min Rain = 0
KPA1 191708Z 33017KT M02/M04 A3032 RMK A01 T10231043  RH  086%=      5-min Rain = 0
KPA1 191709Z 33016KT M02/M04 A3032 RMK A01 T10231044  RH  086%=      5-min Rain = 0
KPA1 191710Z 34014KT M02/M04 A3032 RMK A01 T10231044  RH  086%=      5-min Rain = 0
KPA1 191711Z 34014KT M02/M04 A3032 RMK A01 T10231043  RH  086%=      5-min Rain = 0
KPA1 191712Z 34017KT M02/M04 A3032 RMK A01 T10221043  RH  086%=      5-min Rain = 0
KPA1 191713Z 34020KT M02/M04 A3032 RMK A01 T10231044  RH  085%=      5-min Rain = 0
KPA1 191714Z 34016KT M02/M05 A3032 RMK A01 T10231045  RH  085%=      5-min Rain = 0
KPA1 191715Z 34014KT M02/M05 A3032 RMK A01 T10231045  RH  085%=      5-min Rain = 0
KPA1 191716Z 34015KT M02/M04 A3032 RMK A01 T10231043  RH  086%=      5-min Rain = 0
KPA1 191717Z 33016KT M02/M04 A3032 RMK A01 T10221044  RH  085%=      5-min Rain = 0
KPA1 191718Z 33016KT M02/M04 A3032 RMK A01 T10221044  RH  085%=      5-min Rain = 0
KPA1 191719Z 34013KT M02/M04 A3032 RMK A01 T10221042  RH  086%=      5-min Rain = 0
KPA1 191720Z 33012KT M02/M04 A3032 RMK A01 T10211040  RH  087%=      5-min Rain = 0
KPA1 191721Z 33018KT M02/M04 A3032 RMK A01 T10201040  RH  086%=      5-min Rain = 0
KPA1 191722Z 34020KT M02/M04 A3032 RMK A01 T10201042  RH  085%=      5-min Rain = 0
KPA1 191723Z 33015KT M02/M04 A3032 RMK A01 T10221044  RH  085%=      5-min Rain = 0
KPA1 191724Z 34012KT M02/M04 A3032 RMK A01 T10211042  RH  086%=      5-min Rain = 0
KPA1 191725Z 33012KT M02/M04 A3032 RMK A01 T10201040  RH  086%=      5-min Rain = 0
KPA1 191726Z 34017KT M02/M04 A3032 RMK A01 T10191040  RH  085%=      5-min Rain = 0
KPA1 191727Z 34013KT M02/M04 A3032 RMK A01 T10201042  RH  085%=      5-min Rain = 0
KPA1 191728Z 33015KT M02/M04 A3032 RMK A01 T10191040  RH  086%=      5-min Rain = 0
KPA1 191729Z 33019KT M02/M04 A3032 RMK A01 T10191040  RH  085%=      5-min Rain = 0
KPA1 191730Z 33016KT M02/M04 A3032 RMK A01 T10191042  RH  085%=      5-min Rain = 0
KPA1 191731Z 33021KT M02/M04 A3032 RMK A01 T10201042  RH  085%=      5-min Rain = 0
KPA1 191732Z 33018KT M02/M04 A3032 RMK A01 T10201043  RH  084%=      5-min Rain = 0
KPA1 191733Z 33018G24KT M02/M04 A3032 RMK A01 T10201042  RH  085%=      5-min Rain = 0
KPA1 191734Z 33017G22KT M02/M04 A3032 RMK A01 T10191042  RH  085%=      5-min Rain = 0
KPA1 191735Z 33015KT M02/M04 A3032 RMK A01 T10191041  RH  085%=      5-min Rain = 0
KPA1 191736Z 33015KT M02/M04 A3032 RMK A01 T10191040  RH  085%=      5-min Rain = 0
KPA1 191737Z 33016KT M02/M04 A3032 RMK A01 T10191040  RH  085%=      5-min Rain = 0
KPA1 191738Z 33016KT M02/M04 A3032 RMK A01 T10191041  RH  085%=      5-min Rain = 0
KPA1 191739Z 33017G23KT M02/M04 A3032 RMK A01 T10191041  RH  085%=      5-min Rain = 0
KPA1 191740Z 33020KT M02/M04 A3032 RMK A01 T10191041  RH  085%=      5-min Rain = 0
KPA1 191741Z 34017KT M02/M04 A3032 RMK A01 T10201042  RH  085%=      5-min Rain = 0
KPA1 191742Z 33017KT M02/M04 A3032 RMK A01 T10191042  RH  085%=      5-min Rain = 0
KPA1 191743Z 33019KT M02/M04 A3032 RMK A01 T10191042  RH  085%=      5-min Rain = 0
KPA1 191744Z 33018KT M02/M04 A3032 RMK A01 T10191042  RH  084%=      5-min Rain = 0
KPA1 191745Z 34016KT M02/M04 A3032 RMK A01 T10191042  RH  084%=      5-min Rain = 0
KPA1 191746Z 34016KT M02/M04 A3032 RMK A01 T10191041  RH  084%=      5-min Rain = 0
KPA1 191747Z 33018KT M02/M04 A3032 RMK A01 T10181041  RH  085%=      5-min Rain = 0
KPA1 191748Z 33017KT M02/M04 A3032 RMK A01 T10181041  RH  084%=      5-min Rain = 0
KPA1 191749Z 33019KT M02/M04 A3032 RMK A01 T10181041  RH  084%=      5-min Rain = 0
KPA1 191750Z 33018KT M02/M04 A3032 RMK A01 T10181041  RH  084%=      5-min Rain = 0
KPA1 191751Z 33018KT M02/M04 A3032 RMK A01 T10181041  RH  085%=      5-min Rain = 0
KPA1 191752Z 33013KT M02/M04 A3033 RMK A01 T10181040  RH  085%=      5-min Rain = 0
KPA1 191753Z 34014KT M02/M04 A3033 RMK A01 T10161037  RH  086%=      5-min Rain = 0
KPA1 191754Z 33015KT M02/M04 A3032 RMK A01 T10151038  RH  085%=      5-min Rain = 0
KPA1 191755Z 33013KT M02/M04 A3032 RMK A01 T10151038  RH  084%=      5-min Rain = 0
KPA1 191756Z 33013KT M02/M04 A3032 RMK A01 T10151037  RH  085%=      5-min Rain = 0
KPA1 191757Z 33013KT M01/M04 A3032 RMK A01 T10141036  RH  085%=      5-min Rain = 0
KPA1 191758Z 34012KT M01/M04 A3032 RMK A01 T10131036  RH  084%=      5-min Rain = 0
KPA1 191759Z 33015KT M01/M04 A3032 RMK A01 T10131037  RH  084%=      5-min Rain = 0
KPA1 191800Z 33018KT M01/M04 A3032 RMK A01 T10131038  RH  083%=      5-min Rain = 0
KPA1 191801Z 33015KT M01/M04 A3032 RMK A01 T10141039  RH  083%=      5-min Rain = 0
KPA1 191802Z 33016KT M01/M04 A3032 RMK A01 T10141038  RH  084%=      5-min Rain = 0
KPA1 191803Z 33017KT M01/M04 A3032 RMK A01 T10141038  RH  084%=      5-min Rain = 0
KPA1 191804Z 33014KT M01/M04 A3032 RMK A01 T10141038  RH  084%=      5-min Rain = 0
KPA1 191805Z 33017KT M01/M04 A3033 RMK A01 T10131036  RH  084%=      5-min Rain = 0
KPA1 191806Z 34016KT M01/M04 A3033 RMK A01 T10121036  RH  084%=      5-min Rain = 0
KPA1 191807Z 34015KT M01/M04 A3033 RMK A01 T10121037  RH  083%=      5-min Rain = 0
KPA1 191808Z 33012KT M01/M04 A3033 RMK A01 T10131036  RH  084%=      5-min Rain = 0
KPA1 191809Z 32014KT M01/M03 A3033 RMK A01 T10111034  RH  085%=      5-min Rain = 0
KPA1 191810Z 34014KT M01/M04 A3033 RMK A01 T10111035  RH  084%=      5-min Rain = 0
KPA1 191811Z 33013KT M01/M04 A3032 RMK A01 T10111036  RH  083%=      5-min Rain = 0
KPA1 191812Z 33013KT M01/M04 A3032 RMK A01 T10111035  RH  084%=      5-min Rain = 0
KPA1 191813Z 33016KT M01/M04 A3032 RMK A01 T10111035  RH  084%=      5-min Rain = 0
KPA1 191814Z 34014KT M01/M04 A3032 RMK A01 T10121035  RH  084%=      5-min Rain = 0
KPA1 191815Z 34015KT M01/M04 A3032 RMK A01 T10111035  RH  084%=      5-min Rain = 0
KPA1 191816Z 34015KT M01/M04 A3032 RMK A01 T10111036  RH  083%=      5-min Rain = 0
KPA1 191817Z 34017KT M01/M04 A3032 RMK A01 T10111035  RH  084%=      5-min Rain = 0
KPA1 191818Z 34013KT M01/M04 A3032 RMK A01 T10111035  RH  084%=      5-min Rain = 0
KPA1 191819Z 34014KT M01/M04 A3032 RMK A01 T10111035  RH  084%=      5-min Rain = 0
KPA1 191820Z 34016KT M01/M04 A3032 RMK A01 T10111035  RH  083%=      5-min Rain = 0
KPA1 191821Z 34014KT M01/M04 A3032 RMK A01 T10121037  RH  083%=      5-min Rain = 0
KPA1 191822Z 33012KT M01/M03 A3032 RMK A01 T10111034  RH  085%=      5-min Rain = 0
KPA1 191823Z 33017G22KT M01/M03 A3032 RMK A01 T10091032  RH  085%=      5-min Rain = 0
KPA1 191824Z 33019KT M01/M03 A3031 RMK A01 T10091034  RH  083%=      5-min Rain = 0
KPA1 191825Z 34018KT M01/M04 A3031 RMK A01 T10101035  RH  083%=      5-min Rain = 0
KPA1 191826Z 33017KT M01/M04 A3032 RMK A01 T10101035  RH  083%=      5-min Rain = 0
KPA1 191827Z 34016KT M01/M03 A3032 RMK A01 T10101034  RH  084%=      5-min Rain = 0
KPA1 191828Z 34014KT M01/M03 A3032 RMK A01 T10091033  RH  084%=      5-min Rain = 0
KPA1 191829Z 34017KT M01/M03 A3032 RMK A01 T10081033  RH  083%=      5-min Rain = 0
KPA1 191830Z 33015KT M01/M03 A3031 RMK A01 T10081033  RH  083%=      5-min Rain = 0
KPA1 191831Z 34016KT M01/M03 A3031 RMK A01 T10081033  RH  083%=      5-min Rain = 0
KPA1 191832Z 34014KT M01/M03 A3031 RMK A01 T10091033  RH  084%=      5-min Rain = 0
KPA1 191833Z 33013KT M01/M03 A3031 RMK A01 T10081030  RH  085%=      5-min Rain = 0
KPA1 191834Z 34012KT M01/M03 A3031 RMK A01 T10061028  RH  085%=      5-min Rain = 0
KPA1 191835Z 34013KT M00/M03 A3031 RMK A01 T10041027  RH  085%=      5-min Rain = 0
KPA1 191836Z 33013KT M00/M03 A3031 RMK A01 T10041028  RH  084%=      5-min Rain = 0
KPA1 191837Z 33015KT M00/M03 A3031 RMK A01 T10041028  RH  084%=      5-min Rain = 0
KPA1 191838Z 34014KT M01/M03 A3031 RMK A01 T10051030  RH  083%=      5-min Rain = 0
KPA1 191839Z 34016KT M01/M03 A3031 RMK A01 T10051029  RH  084%=      5-min Rain = 0
KPA1 191840Z 34015KT M01/M03 A3031 RMK A01 T10051030  RH  083%=      5-min Rain = 0
KPA1 191841Z 34015KT M01/M03 A3031 RMK A01 T10061032  RH  083%=      5-min Rain = 0
KPA1 191842Z 34014KT M01/M03 A3031 RMK A01 T10061031  RH  083%=      5-min Rain = 0
KPA1 191843Z 34014KT M01/M03 A3031 RMK A01 T10051027  RH  085%=      5-min Rain = 0
KPA1 191844Z 33016KT M00/M03 A3031 RMK A01 T10031025  RH  085%=      5-min Rain = 0
KPA1 191845Z 33015KT M00/M03 A303 RMK A01 T10031029  RH  083%=      5-min Rain = 0
KPA1 191846Z 33014KT M00/M03 A303 RMK A01 T10041029  RH  083%=      5-min Rain = 0
KPA1 191847Z 34014KT M00/M03 A303 RMK A01 T10041028  RH  084%=      5-min Rain = 0
KPA1 191848Z 34012KT M00/M03 A3031 RMK A01 T10031026  RH  084%=      5-min Rain = 0
KPA1 191849Z 33013KT M00/M03 A303 RMK A01 T10021025  RH  085%=      5-min Rain = 0
KPA1 191850Z 33013KT M00/M03 A303 RMK A01 T10011025  RH  084%=      5-min Rain = 0
KPA1 191851Z 33014KT M00/M03 A303 RMK A01 T10011025  RH  084%=      5-min Rain = 0
KPA1 191852Z 33016KT M00/M03 A303 RMK A01 T10021027  RH  083%=      5-min Rain = 0
KPA1 191853Z 33015KT M00/M03 A303 RMK A01 T10021027  RH  084%=      5-min Rain = 0
KPA1 191854Z 33017KT M00/M03 A303 RMK A01 T10021026  RH  084%=      5-min Rain = 0
KPA1 191855Z 33018KT M00/M03 A303 RMK A01 T10021027  RH  083%=      5-min Rain = 0
KPA1 191856Z 32016KT M00/M03 A303 RMK A01 T10011026  RH  084%=      5-min Rain = 0
KPA1 191857Z 32015KT M00/M03 A303 RMK A01 T10021026  RH  084%=      5-min Rain = 0
KPA1 191858Z 33014KT M00/M03 A303 RMK A01 T10021027  RH  083%=      5-min Rain = 0
KPA1 191859Z 33015KT M00/M03 A3029 RMK A01 T10021026  RH  084%=      5-min Rain = 0
KPA1 191900Z 33013KT M00/M03 A3029 RMK A01 T10011025  RH  084%=      5-min Rain = 0
KPA1 191901Z 33017KT 00/M02 A3029 RMK A01 T00011022  RH  084%=      5-min Rain = 0
KPA1 191902Z 33015KT 00/03 A3029 RMK A01 T00000-25  RH  083%=      5-min Rain = 0
KPA1 191903Z 34015KT 00/02 A3029 RMK A01 T00000-24  RH  084%=      5-min Rain = 0
KPA1 191904Z 34015KT 00/M02 A3029 RMK A01 T00021022  RH  084%=      5-min Rain = 0
KPA1 191905Z 34014KT 01/M02 A3029 RMK A01 T00051018  RH  085%=      5-min Rain = 0
KPA1 191906Z 34013KT 01/M02 A3029 RMK A01 T00051020  RH  083%=      5-min Rain = 0
KPA1 191907Z 34013KT 01/M02 A3029 RMK A01 T00061017  RH  084%=      5-min Rain = 0
KPA1 191908Z 34013KT 01/M02 A3029 RMK A01 T00071017  RH  084%=      5-min Rain = 0
KPA1 191909Z 34015G20KT 01/M02 A3029 RMK A01 T00071021  RH  082%=      5-min Rain = 0
KPA1 191910Z 33020KT 01/M02 A3028 RMK A01 T00061022  RH  082%=      5-min Rain = 0
KPA1 191911Z 34019KT 01/M02 A3028 RMK A01 T00061022  RH  082%=      5-min Rain = 0
KPA1 191912Z 34016KT 00/M03 A3028 RMK A01 T00041025  RH  081%=      5-min Rain = 0
KPA1 191913Z 33017KT 00/M03 A3028 RMK A01 T00031025  RH  081%=      5-min Rain = 0
KPA1 191914Z 33015KT 00/M03 A3028 RMK A01 T00021027  RH  081%=      5-min Rain = 0
KPA1 191915Z 33016KT 00/M03 A3028 RMK A01 T00021025  RH  082%=      5-min Rain = 0
KPA1 191916Z 34015KT 00/M03 A3028 RMK A01 T00011026  RH  082%=      5-min Rain = 0
KPA1 191917Z 33015KT 00/M03 A3028 RMK A01 T00011026  RH  082%=      5-min Rain = 0
KPA1 191918Z 32018KT 00/M03 A3028 RMK A01 T00021025  RH  082%=      5-min Rain = 0
KPA1 191919Z 32017KT 01/M02 A3028 RMK A01 T00051022  RH  082%=      5-min Rain = 0
KPA1 191920Z 32013KT 01/M02 A3028 RMK A01 T00071022  RH  081%=      5-min Rain = 0
KPA1 191921Z 31016G22KT 01/M02 A3028 RMK A01 T00081022  RH  081%=      5-min Rain = 0
KPA1 191922Z 33015KT 01/M02 A3028 RMK A01 T00101019  RH  081%=      5-min Rain = 0
KPA1 191923Z 33014KT 01/M02 A3028 RMK A01 T00131015  RH  082%=      5-min Rain = 0
KPA1 191924Z 34015KT 01/M02 A3028 RMK A01 T00111022  RH  079%=      5-min Rain = 0
KPA1 191925Z 33017KT 01/M03 A3028 RMK A01 T00061027  RH  078%=      5-min Rain = 0
KPA1 191926Z 33014KT 01/M03 A3028 RMK A01 T00051027  RH  079%=      5-min Rain = 0
KPA1 191927Z 32015KT 01/M02 A3028 RMK A01 T00071023  RH  080%=      5-min Rain = 0
KPA1 191928Z 33014KT 01/M02 A3028 RMK A01 T00091022  RH  080%=      5-min Rain = 0
KPA1 191929Z 34016KT 01/M02 A3028 RMK A01 T00091024  RH  079%=      5-min Rain = 0
KPA1 191930Z 33013KT 01/M02 A3028 RMK A01 T00071024  RH  080%=      5-min Rain = 0
KPA1 191931Z 32014KT 01/M02 A3028 RMK A01 T00081022  RH  081%=      5-min Rain = 0
KPA1 191932Z 31016KT 01/M02 A3028 RMK A01 T00101022  RH  079%=      5-min Rain = 0
KPA1 191933Z 32015KT 01/M02 A3028 RMK A01 T00101023  RH  079%=      5-min Rain = 0
KPA1 191934Z 33016KT 01/M02 A3028 RMK A01 T00111021  RH  079%=      5-min Rain = 0
KPA1 191935Z 34017KT 01/M02 A3028 RMK A01 T00131021  RH  078%=      5-min Rain = 0
KPA1 191936Z 33016G21KT 01/M02 A3028 RMK A01 T00141022  RH  077%=      5-min Rain = 0
KPA1 191937Z 34015KT 01/M02 A3028 RMK A01 T00141022  RH  077%=      5-min Rain = 0
KPA1 191938Z 33012KT 01/M02 A3028 RMK A01 T00141022  RH  077%=      5-min Rain = 0
KPA1 191939Z 33016G21KT 02/M02 A3028 RMK A01 T00161018  RH  078%=      5-min Rain = 0
KPA1 191940Z 33017KT 01/M03 A3028 RMK A01 T00131025  RH  076%=      5-min Rain = 0
KPA1 191941Z 34014KT 01/M03 A3027 RMK A01 T00121025  RH  076%=      5-min Rain = 0
KPA1 191942Z 33017KT 01/M02 A3027 RMK A01 T00131023  RH  077%=      5-min Rain = 0
KPA1 191943Z 33015KT 01/M02 A3027 RMK A01 T00141022  RH  077%=      5-min Rain = 0
KPA1 191944Z 34012KT 02/M02 A3027 RMK A01 T00171017  RH  078%=      5-min Rain = 0
KPA1 191945Z 34015KT 02/M02 A3027 RMK A01 T00211015  RH  077%=      5-min Rain = 0
KPA1 191946Z 33014KT 02/M02 A3027 RMK A01 T00211019  RH  075%=      5-min Rain = 0
KPA1 191947Z 33013KT 02/M02 A3027 RMK A01 T00191023  RH  073%=      5-min Rain = 0
KPA1 191948Z 34015KT 02/M02 A3027 RMK A01 T00171024  RH  074%=      5-min Rain = 0
KPA1 191949Z 34017KT 02/M02 A3028 RMK A01 T00181022  RH  075%=      5-min Rain = 0
KPA1 191950Z 33016KT 02/M02 A3028 RMK A01 T00171024  RH  074%=      5-min Rain = 0
KPA1 191951Z 33017KT 02/M02 A3027 RMK A01 T00181022  RH  075%=      5-min Rain = 0
KPA1 191952Z 32016KT 02/M02 A3027 RMK A01 T00191021  RH  075%=      5-min Rain = 0
KPA1 191953Z 32013KT 02/M02 A3027 RMK A01 T00201023  RH  074%=      5-min Rain = 0
KPA1 191954Z 32012KT 02/M02 A3027 RMK A01 T00201023  RH  073%=      5-min Rain = 0
KPA1 191955Z 33011KT 02/M02 A3027 RMK A01 T00221019  RH  074%=      5-min Rain = 0
KPA1 191956Z 32014G20KT 02/M02 A3027 RMK A01 T00241018  RH  074%=      5-min Rain = 0
KPA1 191957Z 32015KT 02/M02 A3027 RMK A01 T00231023  RH  071%=      5-min Rain = 0
KPA1 191958Z 32013KT 02/M03 A3027 RMK A01 T00191026  RH  072%=      5-min Rain = 0
KPA1 191959Z 32015G21KT 02/M02 A3027 RMK A01 T00211020  RH  074%=      5-min Rain = 0
KPA1 192000Z 33016KT 02/M03 A3027 RMK A01 T00211026  RH  071%=      5-min Rain = 0
KPA1 192001Z 32013KT 02/M02 A3027 RMK A01 T00201024  RH  072%=      5-min Rain = 0
KPA1 192002Z 33017KT 02/M02 A3027 RMK A01 T00211023  RH  073%=      5-min Rain = 0
KPA1 192003Z 33016KT 02/M02 A3027 RMK A01 T00221023  RH  072%=      5-min Rain = 0
KPA1 192004Z 33015KT 02/M02 A3027 RMK A01 T00231024  RH  071%=      5-min Rain = 0
KPA1 192005Z 33014KT 02/M03 A3027 RMK A01 T00211026  RH  071%=      5-min Rain = 0
KPA1 192006Z 33014KT 02/M03 A3026 RMK A01 T00201025  RH  072%=      5-min Rain = 0
KPA1 192007Z 33013G18KT 02/M02 A3026 RMK A01 T00231020  RH  073%=      5-min Rain = 0
KPA1 192008Z 32013KT 03/M02 A3026 RMK A01 T00251021  RH  072%=      5-min Rain = 0
KPA1 192009Z 33011G16KT 03/M02 A3026 RMK A01 T00251022  RH  071%=      5-min Rain = 0
KPA1 192010Z 34014KT 03/M02 A3026 RMK A01 T00261022  RH  071%=      5-min Rain = 0
KPA1 192011Z 34014KT 03/M02 A3026 RMK A01 T00251022  RH  071%=      5-min Rain = 0
KPA1 192012Z 33013KT 03/M02 A3026 RMK A01 T00261021  RH  071%=      5-min Rain = 0
KPA1 192013Z 33017KT 03/M02 A3026 RMK A01 T00261024  RH  070%=      5-min Rain = 0
KPA1 192014Z 34016KT 02/M02 A3026 RMK A01 T00241024  RH  070%=      5-min Rain = 0
KPA1 192015Z 33016KT 02/M02 A3026 RMK A01 T00241024  RH  070%=      5-min Rain = 0
KPA1 192016Z 33017KT 03/M02 A3026 RMK A01 T00261023  RH  070%=      5-min Rain = 0
KPA1 192017Z 33016KT 03/M02 A3026 RMK A01 T00271023  RH  070%=      5-min Rain = 0
KPA1 192018Z 33017KT 03/M02 A3026 RMK A01 T00281022  RH  069%=      5-min Rain = 0
KPA1 192019Z 33015KT 03/M02 A3026 RMK A01 T00281023  RH  069%=      5-min Rain = 0
KPA1 192020Z 32013KT 03/M03 A3026 RMK A01 T00261025  RH  069%=      5-min Rain = 0
KPA1 192021Z 33014KT 03/M02 A3026 RMK A01 T00271024  RH  069%=      5-min Rain = 0
KPA1 192022Z 33014KT 03/M03 A3026 RMK A01 T00261025  RH  069%=      5-min Rain = 0
KPA1 192023Z 33017KT 03/M02 A3026 RMK A01 T00271024  RH  069%=      5-min Rain = 0
KPA1 192024Z 33014KT 03/M02 A3026 RMK A01 T00261024  RH  069%=      5-min Rain = 0
KPA1 192025Z 32015KT 03/M02 A3026 RMK A01 T00261023  RH  070%=      5-min Rain = 0
KPA1 192026Z 32014KT 03/M02 A3026 RMK A01 T00281022  RH  070%=      5-min Rain = 0
KPA1 192027Z 32017KT 03/M03 A3026 RMK A01 T00281025  RH  068%=      5-min Rain = 0
KPA1 192028Z 33016KT 03/M03 A3026 RMK A01 T00271025  RH  068%=      5-min Rain = 0
KPA1 192029Z 32015KT 03/M03 A3026 RMK A01 T00271026  RH  068%=      5-min Rain = 0
KPA1 192030Z 31015KT 03/M03 A3026 RMK A01 T00261026  RH  068%=      5-min Rain = 0
KPA1 192031Z 32014KT 03/M03 A3026 RMK A01 T00251027  RH  069%=      5-min Rain = 0
KPA1 192032Z 31015KT 03/M02 A3025 RMK A01 T00271024  RH  069%=      5-min Rain = 0
KPA1 192033Z 32016KT 03/M02 A3025 RMK A01 T00301022  RH  069%=      5-min Rain = 0
KPA1 192034Z 32014KT 03/M02 A3025 RMK A01 T00311023  RH  067%=      5-min Rain = 0
KPA1 192035Z 31014KT 03/M03 A3025 RMK A01 T00291026  RH  067%=      5-min Rain = 0
KPA1 192036Z 31015KT 03/M02 A3025 RMK A01 T00291024  RH  068%=      5-min Rain = 0
KPA1 192037Z 31013KT 03/M02 A3025 RMK A01 T00321022  RH  068%=      5-min Rain = 0
KPA1 192038Z 32012KT 03/M02 A3025 RMK A01 T00321023  RH  067%=      5-min Rain = 0
KPA1 192039Z 32012G17KT 03/M02 A3025 RMK A01 T00321022  RH  068%=      5-min Rain = 0
KPA1 192040Z 33018KT 03/M03 A3025 RMK A01 T00321025  RH  066%=      5-min Rain = 0
KPA1 192041Z 32017KT 03/M03 A3025 RMK A01 T00291027  RH  066%=      5-min Rain = 0
KPA1 192042Z 32018KT 03/M03 A3025 RMK A01 T00291027  RH  067%=      5-min Rain = 0
KPA1 192043Z 33016KT 03/M03 A3025 RMK A01 T00281028  RH  066%=      5-min Rain = 0
KPA1 192044Z 33015KT 03/M03 A3025 RMK A01 T00281026  RH  067%=      5-min Rain = 0
KPA1 192045Z 33016KT 03/M03 A3025 RMK A01 T00291026  RH  067%=      5-min Rain = 0
KPA1 192046Z 31016KT 03/M03 A3025 RMK A01 T00291026  RH  067%=      5-min Rain = 0
KPA1 192047Z 32014KT 03/M02 A3025 RMK A01 T00301024  RH  068%=      5-min Rain = 0
KPA1 192048Z 31015KT 03/M02 A3025 RMK A01 T00311023  RH  067%=      5-min Rain = 0
KPA1 192049Z 32014KT 03/M02 A3025 RMK A01 T00321023  RH  067%=      5-min Rain = 0
KPA1 192050Z 32013KT 03/M02 A3025 RMK A01 T00321023  RH  067%=      5-min Rain = 0
KPA1 192051Z 32013KT 04/M02 A3025 RMK A01 T00351021  RH  067%=      5-min Rain = 0
KPA1 192052Z 32014KT 03/M02 A3025 RMK A01 T00341024  RH  066%=      5-min Rain = 0
KPA1 192053Z 32011KT 03/M03 A3025 RMK A01 T00311027  RH  066%=      5-min Rain = 0
KPA1 192054Z 32012KT 03/M02 A3025 RMK A01 T00321023  RH  067%=      5-min Rain = 0
KPA1 192055Z 33014KT 03/M02 A3025 RMK A01 T00321024  RH  066%=      5-min Rain = 0
KPA1 192056Z 33012KT 03/M02 A3025 RMK A01 T00331024  RH  067%=      5-min Rain = 0
KPA1 192057Z 32011KT 04/M02 A3025 RMK A01 T00361020  RH  067%=      5-min Rain = 0
KPA1 192058Z 32013KT 04/M02 A3025 RMK A01 T00381022  RH  065%=      5-min Rain = 0
KPA1 192059Z 31013KT 04/M02 A3025 RMK A01 T00371024  RH  064%=      5-min Rain = 0
KPA1 192100Z 32011KT 04/M02 A3025 RMK A01 T00371023  RH  065%=      5-min Rain = 0
KPA1 192101Z 33014KT 04/M02 A3025 RMK A01 T00381023  RH  065%=      5-min Rain = 0
KPA1 192102Z 33014KT 04/M03 A3025 RMK A01 T00351026  RH  064%=      5-min Rain = 0
KPA1 192103Z 31013KT 03/M03 A3025 RMK A01 T00341025  RH  065%=      5-min Rain = 0
KPA1 192104Z 31012KT 04/M02 A3025 RMK A01 T00361023  RH  065%=      5-min Rain = 0
KPA1 192105Z 32015KT 04/M02 A3025 RMK A01 T00381022  RH  065%=      5-min Rain = 0
KPA1 192106Z 33014KT 04/M02 A3025 RMK A01 T00381024  RH  064%=      5-min Rain = 0
KPA1 192107Z 33012KT 04/M03 A3025 RMK A01 T00351027  RH  064%=      5-min Rain = 0
KPA1 192108Z 33012KT 03/M03 A3025 RMK A01 T00341025  RH  065%=      5-min Rain = 0
KPA1 192109Z 32011KT 03/M03 A3025 RMK A01 T00341025  RH  065%=      5-min Rain = 0
KPA1 192110Z 32013KT 04/M02 A3025 RMK A01 T00371021  RH  066%=      5-min Rain = 0
KPA1 192111Z 32012KT 04/M03 A3025 RMK A01 T00371026  RH  063%=      5-min Rain = 0
KPA1 192112Z 33014KT 03/M03 A3025 RMK A01 T00341029  RH  063%=      5-min Rain = 0
KPA1 192113Z 32013KT 03/M03 A3025 RMK A01 T00331029  RH  064%=      5-min Rain = 0
KPA1 192114Z 33013KT 03/M03 A3025 RMK A01 T00331028  RH  064%=      5-min Rain = 0
KPA1 192115Z 33015KT 03/M03 A3025 RMK A01 T00331027  RH  065%=      5-min Rain = 0
KPA1 192116Z 33015KT 04/M03 A3025 RMK A01 T00351027  RH  064%=      5-min Rain = 0
KPA1 192117Z 32013KT 04/M03 A3025 RMK A01 T00351028  RH  063%=      5-min Rain = 0
KPA1 192118Z 31012KT 03/M03 A3025 RMK A01 T00341031  RH  063%=      5-min Rain = 0
KPA1 192119Z 32011KT 03/M03 A3025 RMK A01 T00331029  RH  064%=      5-min Rain = 0
KPA1 192120Z 32013KT 04/M03 A3026 RMK A01 T00351026  RH  064%=      5-min Rain = 0
KPA1 192121Z 32015KT 04/M03 A3026 RMK A01 T00371027  RH  063%=      5-min Rain = 0
KPA1 192122Z 32013KT 04/M03 A3026 RMK A01 T00361029  RH  063%=      5-min Rain = 0
KPA1 192123Z 32013KT 03/M03 A3026 RMK A01 T00341029  RH  063%=      5-min Rain = 0
KPA1 192124Z 32014G19KT 04/M03 A3026 RMK A01 T00351027  RH  064%=      5-min Rain = 0
KPA1 192125Z 33015KT 04/M03 A3026 RMK A01 T00371028  RH  063%=      5-min Rain = 0
KPA1 192126Z 33014KT 04/M03 A3026 RMK A01 T00361030  RH  062%=      5-min Rain = 0
KPA1 192127Z 33011KT 04/M03 A3026 RMK A01 T00351030  RH  063%=      5-min Rain = 0
KPA1 192128Z 32010KT 04/M03 A3026 RMK A01 T00351027  RH  064%=      5-min Rain = 0
KPA1 192129Z 31010KT 04/M03 A3026 RMK A01 T00371026  RH  063%=      5-min Rain = 0
KPA1 192130Z 32011KT 04/M03 A3026 RMK A01 T00381025  RH  063%=      5-min Rain = 0
KPA1 192131Z 33011KT 04/M03 A3026 RMK A01 T00391026  RH  063%=      5-min Rain = 0
KPA1 192132Z 33012KT 04/M03 A3026 RMK A01 T00421025  RH  062%=      5-min Rain = 0
KPA1 192133Z 34012KT 04/M03 A3026 RMK A01 T00411027  RH  061%=      5-min Rain = 0
KPA1 192134Z 33012KT 04/M03 A3026 RMK A01 T00401027  RH  061%=      5-min Rain = 0
KPA1 192135Z 32014KT 04/M03 A3026 RMK A01 T00391029  RH  061%=      5-min Rain = 0
KPA1 192136Z 32012KT 04/M03 A3026 RMK A01 T00381030  RH  061%=      5-min Rain = 0
KPA1 192137Z 32011KT 04/M03 A3026 RMK A01 T00361031  RH  062%=      5-min Rain = 0
KPA1 192138Z 32010KT 04/M03 A3026 RMK A01 T00361029  RH  062%=      5-min Rain = 0
KPA1 192139Z 32008KT 04/M03 A3026 RMK A01 T00361029  RH  063%=      5-min Rain = 0
KPA1 192140Z 33011KT 04/M03 A3026 RMK A01 T00391025  RH  063%=      5-min Rain = 0
KPA1 192141Z 33011KT 04/M03 A3026 RMK A01 T00411026  RH  062%=      5-min Rain = 0
KPA1 192142Z 33011KT 04/M03 A3026 RMK A01 T00411027  RH  061%=      5-min Rain = 0
KPA1 192143Z 33013KT 04/M03 A3026 RMK A01 T00411028  RH  061%=      5-min Rain = 0
KPA1 192144Z 32012KT 04/M03 A3026 RMK A01 T00401029  RH  060%=      5-min Rain = 0
KPA1 192145Z 33011KT 04/M03 A3026 RMK A01 T00391030  RH  061%=      5-min Rain = 0
KPA1 192146Z 33011KT 04/M03 A3026 RMK A01 T00391029  RH  061%=      5-min Rain = 0
KPA1 192147Z 34010KT 04/M03 A3026 RMK A01 T00391028  RH  061%=      5-min Rain = 0
KPA1 192148Z 33010KT 04/M03 A3026 RMK A01 T00401028  RH  061%=      5-min Rain = 0
KPA1 192149Z 31010KT 04/M03 A3026 RMK A01 T00411027  RH  061%=      5-min Rain = 0
KPA1 192150Z 32011KT 04/M03 A3026 RMK A01 T00431025  RH  061%=      5-min Rain = 0
KPA1 192151Z 33011KT 04/M03 A3026 RMK A01 T00441025  RH  061%=      5-min Rain = 0
KPA1 192152Z 33011KT 04/M03 A3026 RMK A01 T00431029  RH  059%=      5-min Rain = 0
KPA1 192153Z 33013KT 04/M03 A3026 RMK A01 T00431028  RH  060%=      5-min Rain = 0
KPA1 192154Z 34009KT 04/M03 A3026 RMK A01 T00421028  RH  060%=      5-min Rain = 0
KPA1 192155Z 34008KT 04/M03 A3026 RMK A01 T00421027  RH  061%=      5-min Rain = 0
KPA1 192156Z 33009KT 04/M03 A3026 RMK A01 T00431025  RH  061%=      5-min Rain = 0
KPA1 192157Z 32013KT 04/M03 A3026 RMK A01 T00441026  RH  060%=      5-min Rain = 0
KPA1 192158Z 32011KT 04/M03 A3026 RMK A01 T00431029  RH  059%=      5-min Rain = 0
KPA1 192159Z 33009KT 04/M03 A3026 RMK A01 T00411031  RH  059%=      5-min Rain = 0
KPA1 192200Z 31010KT 04/M03 A3026 RMK A01 T00411029  RH  060%=      5-min Rain = 0
KPA1 192201Z 31011KT 04/M03 A3026 RMK A01 T00421028  RH  060%=      5-min Rain = 0
KPA1 192202Z 32010KT 04/M03 A3026 RMK A01 T00431028  RH  060%=      5-min Rain = 0
KPA1 192203Z 33009KT 04/M03 A3026 RMK A01 T00431029  RH  059%=      5-min Rain = 0
KPA1 192204Z 33008KT 04/M03 A3026 RMK A01 T00421029  RH  060%=      5-min Rain = 0
KPA1 192205Z 33011KT 04/M03 A3026 RMK A01 T00441027  RH  060%=      5-min Rain = 0
KPA1 192206Z 33012KT 05/M03 A3026 RMK A01 T00451027  RH  059%=      5-min Rain = 0
KPA1 192207Z 33011KT 05/M03 A3026 RMK A01 T00451029  RH  059%=      5-min Rain = 0
KPA1 192208Z 33009KT 04/M03 A3026 RMK A01 T00431031  RH  059%=      5-min Rain = 0
KPA1 192209Z 33008KT 04/M03 A3026 RMK A01 T00431029  RH  059%=      5-min Rain = 0
KPA1 192210Z 32009KT 04/M03 A3026 RMK A01 T00441026  RH  061%=      5-min Rain = 0
KPA1 192211Z 31010KT 05/M03 A3026 RMK A01 T00451026  RH  060%=      5-min Rain = 0
KPA1 192212Z 31010KT 04/M03 A3026 RMK A01 T00441028  RH  060%=      5-min Rain = 0
KPA1 192213Z 31009KT 04/M03 A3026 RMK A01 T00441027  RH  060%=      5-min Rain = 0
KPA1 192214Z 31008KT 04/M03 A3026 RMK A01 T00441026  RH  060%=      5-min Rain = 0
KPA1 192215Z 30009KT 04/M03 A3026 RMK A01 T00441026  RH  060%=      5-min Rain = 0
KPA1 192216Z 31010KT 05/M03 A3026 RMK A01 T00451026  RH  060%=      5-min Rain = 0
KPA1 192217Z 32011KT 05/M03 A3027 RMK A01 T00461027  RH  059%=      5-min Rain = 0
KPA1 192218Z 31010KT 04/M03 A3027 RMK A01 T00441028  RH  059%=      5-min Rain = 0
KPA1 192219Z 31009KT 04/M03 A3027 RMK A01 T00441028  RH  059%=      5-min Rain = 0
KPA1 192220Z 31008KT 04/M03 A3027 RMK A01 T00441027  RH  060%=      5-min Rain = 0
KPA1 192221Z 32009KT 05/M03 A3026 RMK A01 T00451027  RH  060%=      5-min Rain = 0
KPA1 192222Z 32007KT 04/M03 A3026 RMK A01 T00441029  RH  059%=      5-min Rain = 0
KPA1 192223Z 33007KT 05/M03 A3026 RMK A01 T00451027  RH  060%=      5-min Rain = 0
KPA1 192224Z 32009KT 05/M03 A3026 RMK A01 T00471025  RH  059%=      5-min Rain = 0
KPA1 192225Z 33008KT 05/M03 A3026 RMK A01 T00471028  RH  058%=      5-min Rain = 0
KPA1 192226Z 34007KT 05/M03 A3026 RMK A01 T00461029  RH  058%=      5-min Rain = 0
KPA1 192227Z 33008KT 05/M03 A3026 RMK A01 T00451029  RH  059%=      5-min Rain = 0
KPA1 192228Z 32008KT 05/M03 A3026 RMK A01 T00451027  RH  059%=      5-min Rain = 0
KPA1 192229Z 32008KT 05/M03 A3026 RMK A01 T00471027  RH  059%=      5-min Rain = 0
KPA1 192230Z 31008KT 05/M03 A3026 RMK A01 T00461029  RH  058%=      5-min Rain = 0
KPA1 192231Z 32006KT 05/M03 A3026 RMK A01 T00451029  RH  058%=      5-min Rain = 0
KPA1 192232Z 34007KT 05/M03 A3026 RMK A01 T00451028  RH  059%=      5-min Rain = 0
KPA1 192233Z 33007KT 05/M03 A3026 RMK A01 T00451028  RH  059%=      5-min Rain = 0
KPA1 192234Z 31007KT 05/M03 A3026 RMK A01 T00461027  RH  059%=      5-min Rain = 0
KPA1 192235Z 31009KT 05/M03 A3026 RMK A01 T00461029  RH  058%=      5-min Rain = 0
KPA1 192236Z 31010KT 05/M03 A3026 RMK A01 T00461030  RH  058%=      5-min Rain = 0
KPA1 192237Z 31007KT 05/M03 A3026 RMK A01 T00451029  RH  059%=      5-min Rain = 0
KPA1 192238Z 33009KT 05/M03 A3026 RMK A01 T00461028  RH  059%=      5-min Rain = 0
KPA1 192239Z 33009KT 05/M03 A3026 RMK A01 T00461028  RH  059%=      5-min Rain = 0
KPA1 192240Z 33010KT 05/M03 A3026 RMK A01 T00461029  RH  058%=      5-min Rain = 0
KPA1 192241Z 32011KT 05/M03 A3026 RMK A01 T00451030  RH  058%=      5-min Rain = 0
KPA1 192242Z 32009KT 04/M03 A3026 RMK A01 T00441032  RH  058%=      5-min Rain = 0
KPA1 192243Z 32009KT 04/M03 A3026 RMK A01 T00431031  RH  058%=      5-min Rain = 0
KPA1 192244Z 33008KT 04/M03 A3026 RMK A01 T00431032  RH  058%=      5-min Rain = 0
KPA1 192245Z 33007KT 04/M03 A3027 RMK A01 T00431030  RH  059%=      5-min Rain = 0
KPA1 192246Z 32007KT 04/M03 A3027 RMK A01 T00441029  RH  059%=      5-min Rain = 0
KPA1 192247Z 32009KT 05/M03 A3027 RMK A01 T00451030  RH  058%=      5-min Rain = 0
KPA1 192248Z 33009KT 05/M03 A3027 RMK A01 T00451032  RH  057%=      5-min Rain = 0
KPA1 192249Z 33009KT 04/M03 A3027 RMK A01 T00441033  RH  057%=      5-min Rain = 0
KPA1 192250Z 33008KT 04/M03 A3027 RMK A01 T00431033  RH  058%=      5-min Rain = 0
KPA1 192251Z 32008KT 04/M03 A3027 RMK A01 T00431032  RH  058%=      5-min Rain = 0
KPA1 192252Z 32007KT 04/M03 A3027 RMK A01 T00431031  RH  059%=      5-min Rain = 0
KPA1 192253Z 32008KT 04/M03 A3027 RMK A01 T00431030  RH  059%=      5-min Rain = 0
KPA1 192254Z 32007KT 04/M03 A3027 RMK A01 T00441031  RH  058%=      5-min Rain = 0
KPA1 192255Z 31008KT 04/M03 A3027 RMK A01 T00441030  RH  059%=      5-min Rain = 0
KPA1 192256Z 32009KT 04/M03 A3027 RMK A01 T00431030  RH  059%=      5-min Rain = 0
KPA1 192257Z 31007KT 04/M03 A3027 RMK A01 T00431030  RH  059%=      5-min Rain = 0
KPA1 192258Z 32007KT 04/M03 A3027 RMK A01 T00431029  RH  059%=      5-min Rain = 0
KPA1 192259Z 32006KT 04/M03 A3027 RMK A01 T00431030  RH  059%=      5-min Rain = 0
KPA1 192300Z 32006KT 04/M03 A3027 RMK A01 T00441032  RH  058%=      5-min Rain = 0
KPA1 192301Z 33007KT 04/M03 A3027 RMK A01 T00441031  RH  058%=      5-min Rain = 0
KPA1 192302Z 32006KT 04/M03 A3027 RMK A01 T00441029  RH  059%=      5-min Rain = 0
KPA1 192303Z 31007KT 05/M03 A3027 RMK A01 T00451028  RH  059%=      5-min Rain = 0
KPA1 192304Z 32007KT 05/M03 A3027 RMK A01 T00451029  RH  059%=      5-min Rain = 0
KPA1 192305Z 32007KT 04/M03 A3027 RMK A01 T00441030  RH  059%=      5-min Rain = 0
KPA1 192306Z 32006KT 04/M03 A3027 RMK A01 T00431030  RH  059%=      5-min Rain = 0
KPA1 192307Z 32005KT 04/M03 A3027 RMK A01 T00431029  RH  059%=      5-min Rain = 0
KPA1 192308Z 32006KT 04/M03 A3027 RMK A01 T00431029  RH  060%=      5-min Rain = 0
KPA1 192309Z 32008KT 04/M03 A3027 RMK A01 T00431030  RH  059%=      5-min Rain = 0
KPA1 192310Z 31008KT 04/M03 A3027 RMK A01 T00431030  RH  059%=      5-min Rain = 0
KPA1 192311Z 31009KT 04/M03 A3027 RMK A01 T00431030  RH  059%=      5-min Rain = 0
KPA1 192312Z 31008KT 04/M03 A3027 RMK A01 T00421031  RH  059%=      5-min Rain = 0
KPA1 192313Z 31008KT 04/M03 A3028 RMK A01 T00421030  RH  059%=      5-min Rain = 0
KPA1 192314Z 30008KT 04/M03 A3028 RMK A01 T00421031  RH  059%=      5-min Rain = 0
KPA1 192315Z 31009KT 04/M03 A3028 RMK A01 T00421031  RH  059%=      5-min Rain = 0
KPA1 192316Z 30009KT 04/M03 A3028 RMK A01 T00411031  RH  059%=      5-min Rain = 0
KPA1 192317Z 30008KT 04/M03 A3028 RMK A01 T00411031  RH  060%=      5-min Rain = 0
KPA1 192318Z 31008KT 04/M03 A3028 RMK A01 T00411030  RH  060%=      5-min Rain = 0
KPA1 192319Z 31007KT 04/M03 A3028 RMK A01 T00411030  RH  060%=      5-min Rain = 0
KPA1 192320Z 31006KT 04/M03 A3028 RMK A01 T00411030  RH  060%=      5-min Rain = 0
KPA1 192321Z 32005KT 04/M03 A3028 RMK A01 T00401030  RH  060%=      5-min Rain = 0
KPA1 192322Z 33008KT 04/M03 A3028 RMK A01 T00401029  RH  060%=      5-min Rain = 0
KPA1 192323Z 33008KT 04/M03 A3027 RMK A01 T00391030  RH  061%=      5-min Rain = 0
KPA1 192324Z 32007KT 04/M03 A3028 RMK A01 T00381030  RH  061%=      5-min Rain = 0
KPA1 192325Z 33008KT 04/M03 A3028 RMK A01 T00371030  RH  061%=      5-min Rain = 0
KPA1 192326Z 32008KT 04/M03 A3028 RMK A01 T00371030  RH  061%=      5-min Rain = 0
KPA1 192327Z 32008KT 04/M03 A3028 RMK A01 T00381030  RH  061%=      5-min Rain = 0
KPA1 192328Z 32006KT 04/M03 A3028 RMK A01 T00381030  RH  061%=      5-min Rain = 0
KPA1 192329Z 32007KT 04/M03 A3028 RMK A01 T00381030  RH  061%=      5-min Rain = 0
KPA1 192330Z 32006KT 04/M03 A3028 RMK A01 T00381030  RH  061%=      5-min Rain = 0
KPA1 192331Z 32005KT 04/M03 A3027 RMK A01 T00381030  RH  061%=      5-min Rain = 0
KPA1 192332Z 32005KT 04/M03 A3027 RMK A01 T00371030  RH  062%=      5-min Rain = 0
KPA1 192333Z 32005KT 04/M03 A3027 RMK A01 T00371030  RH  062%=      5-min Rain = 0
KPA1 192334Z 32005KT 04/M03 A3027 RMK A01 T00371030  RH  062%=      5-min Rain = 0
KPA1 192335Z 32005KT 04/M03 A3027 RMK A01 T00371030  RH  062%=      5-min Rain = 0
KPA1 192336Z 32005KT 04/M03 A3027 RMK A01 T00361030  RH  062%=      5-min Rain = 0
KPA1 192337Z 32005KT 04/M03 A3027 RMK A01 T00361030  RH  062%=      5-min Rain = 0
KPA1 192338Z 32004KT 04/M03 A3027 RMK A01 T00361030  RH  062%=      5-min Rain = 0
KPA1 192339Z 32004KT 04/M03 A3027 RMK A01 T00361030  RH  062%=      5-min Rain = 0
KPA1 192340Z 31004KT 04/M03 A3028 RMK A01 T00361030  RH  062%=      5-min Rain = 0
KPA1 192341Z 31004KT 04/M03 A3028 RMK A01 T00351030  RH  062%=      5-min Rain = 0
KPA1 192342Z 31005KT 03/M03 A3028 RMK A01 T00341030  RH  063%=      5-min Rain = 0
KPA1 192343Z 32004KT 03/M03 A3028 RMK A01 T00341030  RH  063%=      5-min Rain = 0
KPA1 192344Z 33004KT 03/M03 A3028 RMK A01 T00341030  RH  063%=      5-min Rain = 0
KPA1 192345Z 33005KT 03/M03 A3027 RMK A01 T00331030  RH  063%=      5-min Rain = 0
KPA1 192346Z 34005KT 03/M03 A3027 RMK A01 T00311031  RH  064%=      5-min Rain = 0
KPA1 192347Z 35005KT 03/M03 A3027 RMK A01 T00301031  RH  064%=      5-min Rain = 0
KPA1 192348Z 35005KT 03/M03 A3027 RMK A01 T00291031  RH  065%=      5-min Rain = 0
KPA1 192349Z 35005KT 03/M03 A3027 RMK A01 T00271031  RH  066%=      5-min Rain = 0
KPA1 192350Z 34004KT 03/M03 A3027 RMK A01 T00261031  RH  066%=      5-min Rain = 0
KPA1 192351Z 33003KT 03/M03 A3027 RMK A01 T00261030  RH  066%=      5-min Rain = 0
KPA1 192352Z 32003KT 03/M03 A3028 RMK A01 T00261030  RH  067%=      5-min Rain = 0
KPA1 192353Z 31003KT 03/M03 A3028 RMK A01 T00261030  RH  067%=      5-min Rain = 0
KPA1 192354Z 31003KT 03/M03 A3028 RMK A01 T00261030  RH  066%=      5-min Rain = 0
KPA1 192355Z 31003KT 03/M03 A3028 RMK A01 T00261031  RH  066%=      5-min Rain = 0
KPA1 192356Z 32003KT 02/M03 A3027 RMK A01 T00241033  RH  066%=      5-min Rain = 0
KPA1 192357Z 32003KT 02/M03 A3027 RMK A01 T00221034  RH  066%=      5-min Rain = 0
KPA1 192358Z 33003KT 02/M03 A3027 RMK A01 T00211034  RH  067%=      5-min Rain = 0
KPA1 192359Z 32003KT 02/M03 A3027 RMK A01 T00201034  RH  067%=      5-min Rain = 0
KPA1 200000Z 32003KT 02/M03 A3028 RMK A01 T00191034  RH  068%=      5-min Rain = 0
KPA1 200001Z 31003KT 02/M03 A3028 RMK A01 T00191033  RH  068%=      5-min Rain = 0
KPA1 200002Z 31003KT 02/M03 A3028 RMK A01 T00191032  RH  069%=      5-min Rain = 0
KPA1 200003Z 30003KT 02/M03 A3028 RMK A01 T00201031  RH  069%=      5-min Rain = 0
KPA1 200004Z 29003KT 02/M03 A3028 RMK A01 T00211030  RH  069%=      5-min Rain = 0
KPA1 200005Z 29003KT 02/M03 A3028 RMK A01 T00221031  RH  068%=      5-min Rain = 0
KPA1 200006Z 29003KT 02/M03 A3028 RMK A01 T00211032  RH  068%=      5-min Rain = 0
KPA1 200007Z 29003KT 02/M03 A3028 RMK A01 T00211031  RH  068%=      5-min Rain = 0
KPA1 200008Z 29003KT 02/M03 A3027 RMK A01 T00221030  RH  068%=      5-min Rain = 0
KPA1 200009Z 29003KT 02/M03 A3027 RMK A01 T00221030  RH  068%=      5-min Rain = 0
KPA1 200010Z 29003KT 02/M03 A3027 RMK A01 T00231030  RH  068%=      5-min Rain = 0
KPA1 200011Z 29003KT 02/M03 A3027 RMK A01 T00231031  RH  068%=      5-min Rain = 0
KPA1 200012Z 30003KT 02/M03 A3027 RMK A01 T00231031  RH  067%=      5-min Rain = 0
KPA1 200013Z 30003KT 02/M03 A3027 RMK A01 T00231031  RH  067%=      5-min Rain = 0
KPA1 200014Z 30003KT 02/M03 A3027 RMK A01 T00241031  RH  067%=      5-min Rain = 0
KPA1 200015Z 31003KT 02/M03 A3027 RMK A01 T00241031  RH  067%=      5-min Rain = 0
KPA1 200016Z 31002KT 02/M03 A3027 RMK A01 T00241031  RH  067%=      5-min Rain = 0
KPA1 200017Z 31002KT 02/M03 A3027 RMK A01 T00241031  RH  067%=      5-min Rain = 0
KPA1 200018Z 32002KT 02/M03 A3027 RMK A01 T00241032  RH  067%=      5-min Rain = 0
KPA1 200019Z 31002KT 02/M03 A3027 RMK A01 T00231032  RH  067%=      5-min Rain = 0
KPA1 200020Z 31003KT 02/M03 A3027 RMK A01 T00231031  RH  067%=      5-min Rain = 0
KPA1 200021Z 31003KT 02/M03 A3028 RMK A01 T00231031  RH  067%=      5-min Rain = 0
KPA1 200022Z 31003KT 02/M03 A3028 RMK A01 T00241031  RH  067%=      5-min Rain = 0
KPA1 200023Z 31003KT 02/M03 A3028 RMK A01 T00231032  RH  067%=      5-min Rain = 0
KPA1 200024Z 31003KT 02/M03 A3028 RMK A01 T00231032  RH  067%=      5-min Rain = 0
KPA1 200025Z 31003KT 02/M03 A3028 RMK A01 T00231032  RH  067%=      5-min Rain = 0
KPA1 200026Z 32003KT 02/M03 A3028 RMK A01 T00231031  RH  067%=      5-min Rain = 0
KPA1 200027Z 32003KT 02/M03 A3028 RMK A01 T00231031  RH  067%=      5-min Rain = 0
KPA1 200028Z 32003KT 02/M03 A3028 RMK A01 T00231031  RH  067%=      5-min Rain = 0
KPA1 200029Z 33003KT 02/M03 A3028 RMK A01 T00231032  RH  067%=      5-min Rain = 0
KPA1 200030Z 33003KT 02/M03 A3027 RMK A01 T00231031  RH  067%=      5-min Rain = 0
KPA1 200031Z 33003KT 02/M03 A3027 RMK A01 T00221032  RH  067%=      5-min Rain = 0
KPA1 200032Z 32004KT 02/M03 A3027 RMK A01 T00211032  RH  068%=      5-min Rain = 0
KPA1 200033Z 32003KT 02/M03 A3028 RMK A01 T00201033  RH  068%=      5-min Rain = 0
KPA1 200034Z 32003KT 02/M03 A3028 RMK A01 T00191033  RH  069%=      5-min Rain = 0
KPA1 200035Z 32003KT 02/M03 A3028 RMK A01 T00191032  RH  069%=      5-min Rain = 0
KPA1 200036Z 31003KT 02/M03 A3028 RMK A01 T00191032  RH  069%=      5-min Rain = 0
KPA1 200037Z 31003KT 02/M03 A3028 RMK A01 T00191032  RH  069%=      5-min Rain = 0
KPA1 200038Z 30002KT 02/M03 A3028 RMK A01 T00171034  RH  069%=      5-min Rain = 0
KPA1 200039Z 29002KT 01/M05 A3028 RMK A01 T00061051  RH  065%=      5-min Rain = 0
KPA1 200040Z 27002KT M00/M05 A3028 RMK A01 T10031053  RH  069%=      5-min Rain = 0
KPA1 200041Z 26002KT M01/M05 A3028 RMK A01 T10061051  RH  072%=      5-min Rain = 0
KPA1 200042Z 25003KT M01/M05 A3028 RMK A01 T10091050  RH  074%=      5-min Rain = 0
KPA1 200043Z 25003KT M01/M05 A3028 RMK A01 T10121049  RH  076%=      5-min Rain = 0
KPA1 200044Z 25003KT M01/M05 A3028 RMK A01 T10111046  RH  077%=      5-min Rain = 0
KPA1 200045Z 25003KT M01/M04 A3028 RMK A01 T10101044  RH  078%=      5-min Rain = 0
KPA1 200046Z 26002KT M01/M04 A3028 RMK A01 T10101044  RH  078%=      5-min Rain = 0
KPA1 200047Z 27002KT M01/M05 A3028 RMK A01 T10111045  RH  077%=      5-min Rain = 0
KPA1 200048Z 28002KT M01/M05 A3028 RMK A01 T10131049  RH  076%=      5-min Rain = 0
KPA1 200049Z 28001KT M02/M05 A3028 RMK A01 T10151052  RH  076%=      5-min Rain = 0
KPA1 200050Z 30001KT M02/M05 A3028 RMK A01 T10161049  RH  078%=      5-min Rain = 0
KPA1 200051Z 31001KT M02/M05 A3027 RMK A01 T10161048  RH  079%=      5-min Rain = 0
KPA1 200052Z 31001KT M02/M05 A3027 RMK A01 T10171049  RH  079%=      5-min Rain = 0
KPA1 200053Z 32001KT M02/M05 A3027 RMK A01 T10181050  RH  079%=      5-min Rain = 0
KPA1 200054Z 32001KT M02/M05 A3027 RMK A01 T10201051  RH  079%=      5-min Rain = 0
KPA1 200055Z 32001KT M02/M05 A3027 RMK A01 T10201050  RH  080%=      5-min Rain = 0
KPA1 200056Z 32001KT M02/M05 A3027 RMK A01 T10211049  RH  081%=      5-min Rain = 0
KPA1 200057Z 32001KT M02/M05 A3027 RMK A01 T10211047  RH  082%=      5-min Rain = 0
KPA1 200058Z 23000KT M02/M05 A3027 RMK A01 T10211047  RH  082%=      5-min Rain = 0
KPA1 200059Z 21003KT M02/M05 A3026 RMK A01 T10211047  RH  082%=      5-min Rain = 0
KPA1 200100Z 21003KT M02/M05 A3026 RMK A01 T10201047  RH  082%=      5-min Rain = 0
KPA1 200101Z 21003KT M02/M05 A3026 RMK A01 T10191045  RH  082%=      5-min Rain = 0
KPA1 200102Z 22003KT M02/M04 A3026 RMK A01 T10171044  RH  082%=      5-min Rain = 0
KPA1 200103Z 22003KT M02/M05 A3026 RMK A01 T10171046  RH  080%=      5-min Rain = 0
KPA1 200104Z 22002KT M02/M05 A3026 RMK A01 T10161045  RH  081%=      5-min Rain = 0
KPA1 200105Z 22002KT M02/M05 A3026 RMK A01 T10161046  RH  080%=      5-min Rain = 0
KPA1 200106Z 22002KT M02/M05 A3026 RMK A01 T10161047  RH  079%=      5-min Rain = 0
KPA1 200107Z 22001KT M02/M05 A3026 RMK A01 T10161047  RH  079%=      5-min Rain = 0
KPA1 200108Z 22001KT M02/M05 A3026 RMK A01 T10171049  RH  079%=      5-min Rain = 0
KPA1 200109Z 22001KT M02/M05 A3026 RMK A01 T10181050  RH  079%=      5-min Rain = 0
KPA1 200110Z 22001KT M02/M05 A3026 RMK A01 T10191052  RH  078%=      5-min Rain = 0
KPA1 200111Z 22001KT M02/M05 A3026 RMK A01 T10211053  RH  079%=      5-min Rain = 0
KPA1 200112Z 22002KT M02/M05 A3026 RMK A01 T10221052  RH  080%=      5-min Rain = 0
KPA1 200113Z 22002KT M02/M05 A3026 RMK A01 T10221051  RH  081%=      5-min Rain = 0
KPA1 200114Z 22002KT M02/M05 A3026 RMK A01 T10221050  RH  082%=      5-min Rain = 0
KPA1 200115Z 22002KT M02/M05 A3026 RMK A01 T10221049  RH  082%=      5-min Rain = 0
KPA1 200116Z 22002KT M02/M05 A3026 RMK A01 T10221047  RH  083%=      5-min Rain = 0
KPA1 200117Z 22001KT M02/M05 A3026 RMK A01 T10201045  RH  083%=      5-min Rain = 0
KPA1 200118Z 20001KT M02/M05 A3026 RMK A01 T10201048  RH  081%=      5-min Rain = 0
KPA1 200119Z 00000KT M02/M05 A3026 RMK A01 T10211050  RH  081%=      5-min Rain = 0
KPA1 200120Z 00000KT M02/M05 A3026 RMK A01 T10221050  RH  081%=      5-min Rain = 0
KPA1 200121Z 12000KT M02/M05 A3025 RMK A01 T10221049  RH  082%=      5-min Rain = 0
KPA1 200122Z 11001KT M02/M05 A3025 RMK A01 T10211047  RH  082%=      5-min Rain = 0
KPA1 200123Z 09001KT M02/M05 A3025 RMK A01 T10201048  RH  082%=      5-min Rain = 0
KPA1 200124Z 07002KT M02/M05 A3025 RMK A01 T10191046  RH  082%=      5-min Rain = 0
KPA1 200125Z 07003KT M02/M05 A3025 RMK A01 T10181045  RH  081%=      5-min Rain = 0
KPA1 200126Z 06003KT M02/M05 A3025 RMK A01 T10171046  RH  081%=      5-min Rain = 0
KPA1 200127Z 06004KT M02/M05 A3025 RMK A01 T10181047  RH  080%=      5-min Rain = 0
KPA1 200128Z 05004KT M02/M05 A3025 RMK A01 T10181046  RH  081%=      5-min Rain = 0
KPA1 200129Z 05003KT M02/M05 A3025 RMK A01 T10191048  RH  081%=      5-min Rain = 0
KPA1 200130Z 05003KT M02/M05 A3025 RMK A01 T10201049  RH  081%=      5-min Rain = 0
KPA1 200131Z 05003KT M02/M05 A3025 RMK A01 T10221052  RH  080%=      5-min Rain = 0
KPA1 200132Z 05003KT M03/M06 A3025 RMK A01 T10271057  RH  080%=      5-min Rain = 0
KPA1 200133Z 05003KT M03/M06 A3025 RMK A01 T10301059  RH  080%=      5-min Rain = 0
KPA1 200134Z 05003KT M03/M06 A3025 RMK A01 T10331061  RH  081%=      5-min Rain = 0
KPA1 200135Z 05003KT M04/M06 A3024 RMK A01 T10361062  RH  082%=      5-min Rain = 0
KPA1 200136Z 05003KT M04/M06 A3025 RMK A01 T10371063  RH  083%=      5-min Rain = 0
KPA1 200137Z 05002KT M04/M06 A3025 RMK A01 T10381061  RH  084%=      5-min Rain = 0
KPA1 200138Z 05002KT M04/M06 A3025 RMK A01 T10381060  RH  085%=      5-min Rain = 0
KPA1 200139Z 05002KT M04/M06 A3025 RMK A01 T10381059  RH  085%=      5-min Rain = 0
KPA1 200140Z 05001KT M04/M06 A3025 RMK A01 T10371057  RH  086%=      5-min Rain = 0
KPA1 200141Z 05002KT M04/M06 A3025 RMK A01 T10361056  RH  086%=      5-min Rain = 0
KPA1 200142Z 05002KT M03/M05 A3025 RMK A01 T10341054  RH  086%=      5-min Rain = 0
KPA1 200143Z 05002KT M03/M05 A3025 RMK A01 T10321051  RH  087%=      5-min Rain = 0
KPA1 200144Z 05003KT M03/M05 A3025 RMK A01 T10311052  RH  086%=      5-min Rain = 0
KPA1 200145Z 05003KT M03/M05 A3025 RMK A01 T10311054  RH  084%=      5-min Rain = 0
KPA1 200146Z 05003KT M03/M06 A3025 RMK A01 T10321055  RH  084%=      5-min Rain = 0
KPA1 200147Z 05003KT M03/M06 A3025 RMK A01 T10321057  RH  083%=      5-min Rain = 0
KPA1 200148Z 05003KT M03/M06 A3025 RMK A01 T10321056  RH  084%=      5-min Rain = 0
KPA1 200149Z 04003KT M03/M06 A3025 RMK A01 T10331057  RH  084%=      5-min Rain = 0
KPA1 200150Z 04003KT M03/M06 A3025 RMK A01 T10341061  RH  082%=      5-min Rain = 0
KPA1 200151Z 04003KT M04/M07 A3025 RMK A01 T10371065  RH  081%=      5-min Rain = 0
KPA1 200152Z 04003KT M04/M07 A3025 RMK A01 T10401066  RH  082%=      5-min Rain = 0
KPA1 200153Z 04003KT M04/M07 A3025 RMK A01 T10411066  RH  083%=      5-min Rain = 0
KPA1 200154Z 04002KT M04/M07 A3026 RMK A01 T10421065  RH  084%=      5-min Rain = 0
KPA1 200155Z 04002KT M04/M06 A3026 RMK A01 T10411061  RH  086%=      5-min Rain = 0
KPA1 200156Z 04002KT M04/M06 A3026 RMK A01 T10401060  RH  086%=      5-min Rain = 0
KPA1 200157Z 04002KT M04/M06 A3026 RMK A01 T10391057  RH  087%=      5-min Rain = 0
KPA1 200158Z 04002KT M04/M05 A3026 RMK A01 T10361053  RH  088%=      5-min Rain = 0
KPA1 200159Z 04002KT M03/M05 A3026 RMK A01 T10331050  RH  088%=      5-min Rain = 0
KPA1 200200Z 04002KT M03/M05 A3026 RMK A01 T10291048  RH  087%=      5-min Rain = 0
KPA1 200201Z 04002KT M03/M05 A3026 RMK A01 T10281048  RH  086%=      5-min Rain = 0
KPA1 200202Z 04002KT M03/M05 A3026 RMK A01 T10261046  RH  086%=      5-min Rain = 0
KPA1 200203Z 04002KT M02/M04 A3026 RMK A01 T10241043  RH  087%=      5-min Rain = 0
KPA1 200204Z 03002KT M02/M04 A3026 RMK A01 T10211040  RH  087%=      5-min Rain = 0
KPA1 200205Z 03003KT M02/M04 A3027 RMK A01 T10191040  RH  086%=      5-min Rain = 0
KPA1 200206Z 03003KT M02/M04 A3027 RMK A01 T10191040  RH  085%=      5-min Rain = 0
KPA1 200207Z 03002KT M02/M04 A3027 RMK A01 T10161038  RH  085%=      5-min Rain = 0
KPA1 200208Z 03002KT M02/M04 A3027 RMK A01 T10161041  RH  083%=      5-min Rain = 0
KPA1 200209Z 03002KT M02/M04 A3027 RMK A01 T10171043  RH  082%=      5-min Rain = 0
KPA1 200210Z 03002KT M02/M04 A3027 RMK A01 T10171043  RH  082%=      5-min Rain = 0
KPA1 200211Z 03002KT M02/M04 A3027 RMK A01 T10171042  RH  083%=      5-min Rain = 0
KPA1 200212Z 03002KT M02/M04 A3027 RMK A01 T10161040  RH  084%=      5-min Rain = 0
KPA1 200213Z 03002KT M02/M04 A3027 RMK A01 T10161040  RH  083%=      5-min Rain = 0
KPA1 200214Z 03001KT M02/M04 A3027 RMK A01 T10151040  RH  083%=      5-min Rain = 0
KPA1 200215Z 03001KT M02/M04 A3027 RMK A01 T10161041  RH  083%=      5-min Rain = 0
KPA1 200216Z 03001KT M02/M04 A3027 RMK A01 T10161042  RH  083%=      5-min Rain = 0
KPA1 200217Z 03001KT M02/M04 A3027 RMK A01 T10171041  RH  084%=      5-min Rain = 0
KPA1 200218Z 03001KT M02/M04 A3027 RMK A01 T10161038  RH  085%=      5-min Rain = 0
KPA1 200219Z 03001KT M01/M04 A3027 RMK A01 T10141036  RH  085%=      5-min Rain = 0
KPA1 200220Z 03001KT M01/M04 A3027 RMK A01 T10131035  RH  085%=      5-min Rain = 0
KPA1 200221Z 03001KT M01/M04 A3027 RMK A01 T10131040  RH  081%=      5-min Rain = 0
KPA1 200222Z 03001KT M02/M05 A3027 RMK A01 T10161048  RH  079%=      5-min Rain = 0
KPA1 200223Z 03001KT M02/M05 A3027 RMK A01 T10191050  RH  079%=      5-min Rain = 0
KPA1 200224Z 03001KT M02/M05 A3027 RMK A01 T10201050  RH  080%=      5-min Rain = 0
KPA1 200225Z 03001KT M02/M05 A3027 RMK A01 T10211049  RH  081%=      5-min Rain = 0
KPA1 200226Z 03000KT M02/M05 A3027 RMK A01 T10221049  RH  081%=      5-min Rain = 0
KPA1 200227Z 00000KT M02/M05 A3027 RMK A01 T10231049  RH  082%=      5-min Rain = 0
KPA1 200228Z 00000KT M02/M05 A3027 RMK A01 T10241049  RH  083%=      5-min Rain = 0
KPA1 200229Z 00000KT M02/M05 A3027 RMK A01 T10241048  RH  084%=      5-min Rain = 0
KPA1 200230Z 00000KT M02/M05 A3027 RMK A01 T10241047  RH  085%=      5-min Rain = 0
KPA1 200231Z 03000KT M03/M05 A3027 RMK A01 T10251047  RH  085%=      5-min Rain = 0
KPA1 200232Z 03000KT M03/M05 A3026 RMK A01 T10261049  RH  084%=      5-min Rain = 0
KPA1 200233Z 03001KT M03/M05 A3026 RMK A01 T10261048  RH  085%=      5-min Rain = 0
KPA1 200234Z 04001KT M03/M05 A3026 RMK A01 T10261047  RH  086%=      5-min Rain = 0
KPA1 200235Z 04002KT M03/M05 A3026 RMK A01 T10251046  RH  085%=      5-min Rain = 0
KPA1 200236Z 04002KT M03/M05 A3026 RMK A01 T10251047  RH  085%=      5-min Rain = 0
KPA1 200237Z 04002KT M03/M05 A3026 RMK A01 T10251049  RH  084%=      5-min Rain = 0
KPA1 200238Z 04002KT M03/M05 A3026 RMK A01 T10251049  RH  084%=      5-min Rain = 0
KPA1 200239Z 04001KT M02/M05 A3026 RMK A01 T10241047  RH  084%=      5-min Rain = 0
KPA1 200240Z 04001KT M02/M05 A3026 RMK A01 T10231046  RH  084%=      5-min Rain = 0
KPA1 200241Z 04001KT M02/M05 A3026 RMK A01 T10221045  RH  084%=      5-min Rain = 0
KPA1 200242Z 04001KT M02/M04 A3027 RMK A01 T10211044  RH  084%=      5-min Rain = 0
KPA1 200243Z 04002KT M02/M04 A3027 RMK A01 T10201044  RH  084%=      5-min Rain = 0
KPA1 200244Z 04003KT M02/M04 A3027 RMK A01 T10201044  RH  084%=      5-min Rain = 0
KPA1 200245Z 04004KT M02/M04 A3026 RMK A01 T10181042  RH  084%=      5-min Rain = 0
KPA1 200246Z 04005KT M02/M04 A3026 RMK A01 T10161040  RH  084%=      5-min Rain = 0
KPA1 200247Z 04006KT M02/M04 A3026 RMK A01 T10151040  RH  083%=      5-min Rain = 0
KPA1 200248Z 04006KT M02/M05 A3026 RMK A01 T10171045  RH  082%=      5-min Rain = 0
KPA1 200249Z 04006KT M02/M05 A3026 RMK A01 T10201047  RH  082%=      5-min Rain = 0
KPA1 200250Z 04006KT M02/M05 A3026 RMK A01 T10221047  RH  083%=      5-min Rain = 0
KPA1 200251Z 04006KT M02/M05 A3026 RMK A01 T10221045  RH  084%=      5-min Rain = 0
KPA1 200252Z 04006KT M02/M04 A3026 RMK A01 T10211044  RH  084%=      5-min Rain = 0
KPA1 200253Z 04006KT M02/M04 A3026 RMK A01 T10211044  RH  084%=      5-min Rain = 0
KPA1 200254Z 04006KT M02/M04 A3026 RMK A01 T10211044  RH  084%=      5-min Rain = 0
KPA1 200255Z 04006KT M02/M05 A3026 RMK A01 T10221045  RH  084%=      5-min Rain = 0
KPA1 200256Z 05007KT M02/M05 A3026 RMK A01 T10221045  RH  084%=      5-min Rain = 0
KPA1 200257Z 05006KT M02/M05 A3026 RMK A01 T10221046  RH  084%=      5-min Rain = 0
KPA1 200258Z 05006KT M02/M05 A3026 RMK A01 T10231047  RH  084%=      5-min Rain = 0
KPA1 200259Z 05006KT M02/M05 A3026 RMK A01 T10241047  RH  084%=      5-min Rain = 0
KPA1 200300Z 05005KT M03/M05 A3026 RMK A01 T10251048  RH  084%=      5-min Rain = 0
KPA1 200301Z 04004KT M03/M05 A3026 RMK A01 T10251049  RH  084%=      5-min Rain = 0
KPA1 200302Z 04003KT M03/M05 A3026 RMK A01 T10261050  RH  084%=      5-min Rain = 0
KPA1 200303Z 04001KT M03/M06 A3026 RMK A01 T10321059  RH  081%=      5-min Rain = 0
KPA1 200304Z 00000KT M04/M06 A3026 RMK A01 T10371064  RH  082%=      5-min Rain = 0
KPA1 200305Z 14000KT M04/M06 A3025 RMK A01 T10381061  RH  084%=      5-min Rain = 0
KPA1 200306Z 10000KT M04/M06 A3025 RMK A01 T10381058  RH  086%=      5-min Rain = 0
KPA1 200307Z 14001KT M04/M06 A3025 RMK A01 T10381058  RH  086%=      5-min Rain = 0
KPA1 200308Z 15002KT M04/M06 A3025 RMK A01 T10411064  RH  084%=      5-min Rain = 0
KPA1 200309Z 16002KT M04/M06 A3025 RMK A01 T10411062  RH  086%=      5-min Rain = 0
KPA1 200310Z 17003KT M04/M06 A3025 RMK A01 T10411060  RH  087%=      5-min Rain = 0
KPA1 200311Z 18004KT M04/M06 A3025 RMK A01 T10411061  RH  086%=      5-min Rain = 0
KPA1 200312Z 20006KT M05/M07 A3025 RMK A01 T10461068  RH  084%=      5-min Rain = 0
KPA1 200313Z 20006KT M05/M07 A3025 RMK A01 T10511074  RH  084%=      5-min Rain = 0
KPA1 200314Z 20006KT M06/M08 A3025 RMK A01 T10561078  RH  085%=      5-min Rain = 0
KPA1 200315Z 20005KT M06/M08 A3025 RMK A01 T10581077  RH  086%=      5-min Rain = 0
KPA1 200316Z 19004KT M06/M07 A3025 RMK A01 T10581074  RH  089%=      5-min Rain = 0
KPA1 200317Z 17003KT M06/M07 A3025 RMK A01 T10571071  RH  090%=      5-min Rain = 0
KPA1 200318Z 16003KT M06/M07 A3025 RMK A01 T10571071  RH  090%=      5-min Rain = 0
KPA1 200319Z 18003KT M06/M07 A3025 RMK A01 T10571070  RH  090%=      5-min Rain = 0
KPA1 200320Z 18003KT M06/M07 A3025 RMK A01 T10561069  RH  091%=      5-min Rain = 0
KPA1 200321Z 18003KT M06/M07 A3025 RMK A01 T10561069  RH  091%=      5-min Rain = 0
KPA1 200322Z 18004KT M05/M07 A3025 RMK A01 T10541066  RH  091%=      5-min Rain = 0
KPA1 200323Z 19005KT M05/M06 A3025 RMK A01 T10501061  RH  092%=      5-min Rain = 0
KPA1 200324Z 19005KT M05/M06 A3026 RMK A01 T10481058  RH  092%=      5-min Rain = 0
KPA1 200325Z 18004KT M05/M06 A3026 RMK A01 T10471058  RH  092%=      5-min Rain = 0
KPA1 200326Z 17003KT M05/M06 A3026 RMK A01 T10461059  RH  091%=      5-min Rain = 0
KPA1 200327Z 16002KT M05/M06 A3026 RMK A01 T10451059  RH  090%=      5-min Rain = 0
KPA1 200328Z 15002KT M05/M06 A3025 RMK A01 T10451058  RH  091%=      5-min Rain = 0
KPA1 200329Z 15002KT M05/M06 A3025 RMK A01 T10451059  RH  090%=      5-min Rain = 0
KPA1 200330Z 16003KT M05/M06 A3025 RMK A01 T10451060  RH  090%=      5-min Rain = 0
KPA1 200331Z 17003KT M05/M06 A3025 RMK A01 T10451059  RH  090%=      5-min Rain = 0
KPA1 200332Z 18003KT M04/M06 A3025 RMK A01 T10431057  RH  090%=      5-min Rain = 0
KPA1 200333Z 18003KT M04/M06 A3025 RMK A01 T10421056  RH  090%=      5-min Rain = 0
KPA1 200334Z 16002KT M04/M05 A3025 RMK A01 T10411054  RH  090%=      5-min Rain = 0
KPA1 200335Z 16002KT M04/M05 A3024 RMK A01 T10401054  RH  090%=      5-min Rain = 0
KPA1 200336Z 16002KT M04/M05 A3024 RMK A01 T10391054  RH  090%=      5-min Rain = 0
KPA1 200337Z 15002KT M04/M05 A3024 RMK A01 T10391054  RH  089%=      5-min Rain = 0
KPA1 200338Z 14002KT M04/M05 A3024 RMK A01 T10391054  RH  089%=      5-min Rain = 0
KPA1 200339Z 14002KT M04/M06 A3024 RMK A01 T10391055  RH  089%=      5-min Rain = 0
KPA1 200340Z 14001KT M04/M06 A3024 RMK A01 T10391055  RH  088%=      5-min Rain = 0
KPA1 200341Z 14001KT M04/M06 A3025 RMK A01 T10391056  RH  088%=      5-min Rain = 0
KPA1 200342Z 16002KT M04/M06 A3025 RMK A01 T10391055  RH  089%=      5-min Rain = 0
KPA1 200343Z 17002KT M04/M05 A3025 RMK A01 T10381054  RH  089%=      5-min Rain = 0
KPA1 200344Z 17003KT M04/M05 A3025 RMK A01 T10381053  RH  089%=      5-min Rain = 0
KPA1 200345Z 17002KT M04/M05 A3025 RMK A01 T10371053  RH  089%=      5-min Rain = 0
KPA1 200346Z 17002KT M04/M05 A3024 RMK A01 T10371053  RH  089%=      5-min Rain = 0
KPA1 200347Z 16002KT M04/M05 A3024 RMK A01 T10371053  RH  089%=      5-min Rain = 0
KPA1 200348Z 14002KT M04/M05 A3024 RMK A01 T10371053  RH  089%=      5-min Rain = 0
KPA1 200349Z 14002KT M04/M05 A3024 RMK A01 T10371054  RH  088%=      5-min Rain = 0
KPA1 200350Z 14002KT M04/M05 A3025 RMK A01 T10371054  RH  088%=      5-min Rain = 0
KPA1 200351Z 14002KT M04/M06 A3024 RMK A01 T10371055  RH  088%=      5-min Rain = 0
KPA1 200352Z 14003KT M04/M06 A3024 RMK A01 T10371055  RH  088%=      5-min Rain = 0
KPA1 200353Z 14004KT M04/M06 A3024 RMK A01 T10371055  RH  087%=      5-min Rain = 0
KPA1 200354Z 15004KT M04/M06 A3024 RMK A01 T10381057  RH  086%=      5-min Rain = 0
KPA1 200355Z 15004KT M04/M06 A3023 RMK A01 T10381058  RH  086%=      5-min Rain = 0
KPA1 200356Z 15004KT M04/M06 A3023 RMK A01 T10381056  RH  088%=      5-min Rain = 0
KPA1 200357Z 14003KT M04/M06 A3023 RMK A01 T10371055  RH  088%=      5-min Rain = 0
KPA1 200358Z 14003KT M04/M06 A3024 RMK A01 T10371055  RH  087%=      5-min Rain = 0
KPA1 200359Z 15002KT M04/M06 A3024 RMK A01 T10371055  RH  087%=      5-min Rain = 0
KPA1 200400Z 15002KT M04/M06 A3024 RMK A01 T10371055  RH  087%=      5-min Rain = 0
KPA1 200401Z 16002KT M04/M06 A3024 RMK A01 T10371055  RH  087%=      5-min Rain = 0
KPA1 200402Z 17002KT M04/M06 A3024 RMK A01 T10371056  RH  087%=      5-min Rain = 0
KPA1 200403Z 17003KT M04/M06 A3024 RMK A01 T10371057  RH  087%=      5-min Rain = 0
KPA1 200404Z 17003KT M04/M06 A3024 RMK A01 T10381058  RH  086%=      5-min Rain = 0
KPA1 200405Z 17002KT M04/M06 A3024 RMK A01 T10381058  RH  086%=      5-min Rain = 0
KPA1 200406Z 17002KT M04/M06 A3024 RMK A01 T10391059  RH  086%=      5-min Rain = 0
KPA1 200407Z 17002KT M04/M06 A3024 RMK A01 T10401059  RH  086%=      5-min Rain = 0
KPA1 200408Z 17003KT M04/M06 A3024 RMK A01 T10401059  RH  086%=      5-min Rain = 0
KPA1 200409Z 18004KT M04/M06 A3024 RMK A01 T10401060  RH  086%=      5-min Rain = 0
KPA1 200410Z 18005KT M04/M06 A3024 RMK A01 T10401060  RH  086%=      5-min Rain = 0
KPA1 200411Z 18005KT M04/M06 A3024 RMK A01 T10411060  RH  086%=      5-min Rain = 0
KPA1 200412Z 18005KT M04/M06 A3023 RMK A01 T10431063  RH  086%=      5-min Rain = 0
KPA1 200413Z 17005KT M04/M07 A3023 RMK A01 T10441065  RH  085%=      5-min Rain = 0
KPA1 200414Z 17004KT M05/M07 A3023 RMK A01 T10451065  RH  086%=      5-min Rain = 0
KPA1 200415Z 18003KT M05/M07 A3023 RMK A01 T10471066  RH  086%=      5-min Rain = 0
KPA1 200416Z 18003KT M05/M07 A3023 RMK A01 T10481067  RH  087%=      5-min Rain = 0
KPA1 200417Z 19003KT M05/M07 A3024 RMK A01 T10481066  RH  087%=      5-min Rain = 0
KPA1 200418Z 20003KT M05/M07 A3024 RMK A01 T10481065  RH  088%=      5-min Rain = 0
KPA1 200419Z 20002KT M05/M07 A3024 RMK A01 T10481065  RH  088%=      5-min Rain = 0
KPA1 200420Z 18001KT M05/M06 A3024 RMK A01 T10471064  RH  088%=      5-min Rain = 0
KPA1 200421Z 18001KT M05/M06 A3024 RMK A01 T10471064  RH  088%=      5-min Rain = 0
KPA1 200422Z 18001KT M05/M06 A3025 RMK A01 T10481064  RH  089%=      5-min Rain = 0
KPA1 200423Z 18001KT M05/M07 A3025 RMK A01 T10491065  RH  089%=      5-min Rain = 0
KPA1 200424Z 18001KT M05/M07 A3025 RMK A01 T10501066  RH  089%=      5-min Rain = 0
KPA1 200425Z 18001KT M05/M07 A3025 RMK A01 T10511066  RH  089%=      5-min Rain = 0
KPA1 200426Z 18001KT M05/M07 A3025 RMK A01 T10501065  RH  090%=      5-min Rain = 0
KPA1 200427Z 20002KT M05/M06 A3025 RMK A01 T10501064  RH  090%=      5-min Rain = 0
KPA1 200428Z 20002KT M05/M06 A3025 RMK A01 T10491063  RH  090%=      5-min Rain = 0
KPA1 200429Z 20001KT M05/M06 A3025 RMK A01 T10481062  RH  090%=      5-min Rain = 0
KPA1 200430Z 18001KT M05/M06 A3024 RMK A01 T10471061  RH  090%=      5-min Rain = 0
KPA1 200431Z 17000KT M05/M06 A3024 RMK A01 T10471061  RH  090%=      5-min Rain = 0
KPA1 200432Z 00000KT M05/M06 A3025 RMK A01 T10461060  RH  090%=      5-min Rain = 0
KPA1 200433Z 00000KT M04/M06 A3025 RMK A01 T10441058  RH  090%=      5-min Rain = 0
KPA1 200434Z 17000KT M04/M06 A3025 RMK A01 T10441058  RH  089%=      5-min Rain = 0
KPA1 200435Z 17001KT M04/M06 A3024 RMK A01 T10431058  RH  090%=      5-min Rain = 0
KPA1 200436Z 17001KT M04/M06 A3024 RMK A01 T10431057  RH  090%=      5-min Rain = 0
KPA1 200437Z 18002KT M04/M06 A3024 RMK A01 T10421057  RH  090%=      5-min Rain = 0
KPA1 200438Z 18002KT M04/M06 A3024 RMK A01 T10421057  RH  090%=      5-min Rain = 0
KPA1 200439Z 18003KT M04/M06 A3023 RMK A01 T10431058  RH  089%=      5-min Rain = 0
KPA1 200440Z 18003KT M04/M06 A3023 RMK A01 T10431058  RH  089%=      5-min Rain = 0
KPA1 200441Z 19002KT M04/M06 A3024 RMK A01 T10431058  RH  089%=      5-min Rain = 0
KPA1 200442Z 20002KT M04/M06 A3024 RMK A01 T10421057  RH  090%=      5-min Rain = 0
KPA1 200443Z 20002KT M04/M06 A3024 RMK A01 T10411055  RH  090%=      5-min Rain = 0
KPA1 200444Z 20002KT M04/M05 A3024 RMK A01 T10401054  RH  090%=      5-min Rain = 0
KPA1 200445Z 20002KT M04/M05 A3024 RMK A01 T10391052  RH  090%=      5-min Rain = 0
KPA1 200446Z 20002KT M04/M05 A3024 RMK A01 T10381051  RH  091%=      5-min Rain = 0
KPA1 200447Z 20003KT M04/M05 A3024 RMK A01 T10371051  RH  090%=      5-min Rain = 0
KPA1 200448Z 20003KT M04/M05 A3024 RMK A01 T10381053  RH  089%=      5-min Rain = 0
KPA1 200449Z 20003KT M04/M06 A3024 RMK A01 T10401056  RH  088%=      5-min Rain = 0
KPA1 200450Z 20003KT M04/M06 A3025 RMK A01 T10421060  RH  088%=      5-min Rain = 0
KPA1 200451Z 21003KT M05/M07 A3025 RMK A01 T10461065  RH  086%=      5-min Rain = 0
KPA1 200452Z 21002KT M05/M07 A3025 RMK A01 T10481066  RH  087%=      5-min Rain = 0
KPA1 200453Z 21002KT M05/M07 A3025 RMK A01 T10481065  RH  088%=      5-min Rain = 0
KPA1 200454Z 21002KT M05/M07 A3025 RMK A01 T10491066  RH  088%=      5-min Rain = 0
KPA1 200455Z 21002KT M05/M07 A3025 RMK A01 T10511069  RH  088%=      5-min Rain = 0
KPA1 200456Z 21002KT M05/M07 A3025 RMK A01 T10521069  RH  088%=      5-min Rain = 0
KPA1 200457Z 21003KT M05/M07 A3026 RMK A01 T10521067  RH  089%=      5-min Rain = 0
KPA1 200458Z 21003KT M05/M07 A3026 RMK A01 T10521066  RH  090%=      5-min Rain = 0
KPA1 200459Z 21004KT M05/M07 A3026 RMK A01 T10511065  RH  090%=      5-min Rain = 0
KPA1 200500Z 21004KT M05/M07 A3026 RMK A01 T10521065  RH  090%=      5-min Rain = 0
KPA1 200501Z 21004KT M05/M07 A3026 RMK A01 T10521065  RH  090%=      5-min Rain = 0
KPA1 200502Z 21003KT M05/M06 A3026 RMK A01 T10511064  RH  090%=      5-min Rain = 0
KPA1 200503Z 20003KT M05/M06 A3026 RMK A01 T10491062  RH  091%=      5-min Rain = 0
KPA1 200504Z 20003KT M05/M06 A3026 RMK A01 T10481060  RH  091%=      5-min Rain = 0
KPA1 200505Z 20003KT M05/M06 A3026 RMK A01 T10471058  RH  092%=      5-min Rain = 0
KPA1 200506Z 20003KT M05/M06 A3026 RMK A01 T10451055  RH  092%=      5-min Rain = 0
KPA1 200507Z 19003KT M04/M06 A3026 RMK A01 T10441056  RH  091%=      5-min Rain = 0
KPA1 200508Z 19004KT M04/M06 A3026 RMK A01 T10441057  RH  091%=      5-min Rain = 0
KPA1 200509Z 19003KT M05/M06 A3026 RMK A01 T10451059  RH  090%=      5-min Rain = 0
KPA1 200510Z 19004KT M05/M06 A3026 RMK A01 T10471060  RH  090%=      5-min Rain = 0
KPA1 200511Z 19004KT M05/M06 A3026 RMK A01 T10481062  RH  090%=      5-min Rain = 0
KPA1 200512Z 19005KT M05/M06 A3026 RMK A01 T10481062  RH  090%=      5-min Rain = 0
KPA1 200513Z 19004KT M05/M06 A3026 RMK A01 T10491062  RH  090%=      5-min Rain = 0
KPA1 200514Z 19004KT M05/M06 A3026 RMK A01 T10491063  RH  091%=      5-min Rain = 0
KPA1 200515Z 19004KT M05/M06 A3026 RMK A01 T10491062  RH  091%=      5-min Rain = 0
KPA1 200516Z 19004KT M05/M06 A3026 RMK A01 T10491062  RH  091%=      5-min Rain = 0
KPA1 200517Z 19004KT M05/M06 A3026 RMK A01 T10491062  RH  091%=      5-min Rain = 0
KPA1 200518Z 19004KT M05/M06 A3026 RMK A01 T10491062  RH  091%=      5-min Rain = 0
KPA1 200519Z 19004KT M05/M06 A3026 RMK A01 T10491062  RH  090%=      5-min Rain = 0
KPA1 200520Z 19004KT M05/M06 A3027 RMK A01 T10481061  RH  091%=      5-min Rain = 0
KPA1 200521Z 20004KT M05/M06 A3027 RMK A01 T10481061  RH  090%=      5-min Rain = 0
KPA1 200522Z 20005KT M05/M06 A3027 RMK A01 T10481061  RH  091%=      5-min Rain = 0
KPA1 200523Z 20005KT M05/M06 A3027 RMK A01 T10461059  RH  091%=      5-min Rain = 0
KPA1 200524Z 20005KT M05/M06 A3027 RMK A01 T10461059  RH  091%=      5-min Rain = 0
KPA1 200525Z 20005KT M05/M06 A3027 RMK A01 T10461059  RH  090%=      5-min Rain = 0
KPA1 200526Z 20005KT M05/M06 A3027 RMK A01 T10461059  RH  090%=      5-min Rain = 0
KPA1 200527Z 20005KT M05/M06 A3027 RMK A01 T10461060  RH  090%=      5-min Rain = 0
KPA1 200528Z 20006KT M05/M06 A3027 RMK A01 T10461060  RH  090%=      5-min Rain = 0
KPA1 200529Z 20006KT M05/M06 A3027 RMK A01 T10461061  RH  089%=      5-min Rain = 0
KPA1 200530Z 20005KT M05/M06 A3027 RMK A01 T10471062  RH  089%=      5-min Rain = 0
KPA1 200531Z 20005KT M05/M06 A3027 RMK A01 T10481063  RH  089%=      5-min Rain = 0
KPA1 200532Z 20005KT M05/M06 A3027 RMK A01 T10471062  RH  089%=      5-min Rain = 0
KPA1 200533Z 20005KT M05/M06 A3027 RMK A01 T10471062  RH  090%=      5-min Rain = 0
KPA1 200534Z 20005KT M05/M06 A3027 RMK A01 T10481062  RH  090%=      5-min Rain = 0
KPA1 200535Z 19004KT M05/M06 A3026 RMK A01 T10491063  RH  089%=      5-min Rain = 0
KPA1 200536Z 19004KT M05/M06 A3026 RMK A01 T10491064  RH  089%=      5-min Rain = 0
KPA1 200537Z 19004KT M05/M07 A3026 RMK A01 T10511066  RH  089%=      5-min Rain = 0
KPA1 200538Z 19004KT M05/M07 A3026 RMK A01 T10511065  RH  090%=      5-min Rain = 0
KPA1 200539Z 19004KT M05/M06 A3027 RMK A01 T10501064  RH  090%=      5-min Rain = 0
KPA1 200540Z 18004KT M05/M06 A3027 RMK A01 T10491063  RH  090%=      5-min Rain = 0
KPA1 200541Z 18004KT M05/M06 A3027 RMK A01 T10491062  RH  090%=      5-min Rain = 0
KPA1 200542Z 18004KT M05/M06 A3027 RMK A01 T10481061  RH  090%=      5-min Rain = 0
KPA1 200543Z 19005KT M05/M06 A3027 RMK A01 T10471060  RH  090%=      5-min Rain = 0
KPA1 200544Z 19005KT M05/M06 A3027 RMK A01 T10461060  RH  090%=      5-min Rain = 0
KPA1 200545Z 19005KT M05/M06 A3027 RMK A01 T10451059  RH  090%=      5-min Rain = 0
KPA1 200546Z 19004KT M04/M06 A3027 RMK A01 T10441059  RH  089%=      5-min Rain = 0
KPA1 200547Z 20005KT M04/M06 A3027 RMK A01 T10441060  RH  089%=      5-min Rain = 0
KPA1 200548Z 20005KT M04/M06 A3027 RMK A01 T10441060  RH  088%=      5-min Rain = 0
KPA1 200549Z 20005KT M04/M06 A3027 RMK A01 T10441061  RH  088%=      5-min Rain = 0
KPA1 200550Z 20005KT M04/M06 A3027 RMK A01 T10441061  RH  088%=      5-min Rain = 0
KPA1 200551Z 19005KT M04/M06 A3027 RMK A01 T10441060  RH  088%=      5-min Rain = 0
KPA1 200552Z 19005KT M04/M06 A3027 RMK A01 T10441060  RH  088%=      5-min Rain = 0
KPA1 200553Z 18004KT M04/M06 A3027 RMK A01 T10441060  RH  088%=      5-min Rain = 0
KPA1 200554Z 18005KT M04/M06 A3027 RMK A01 T10441061  RH  088%=      5-min Rain = 0
KPA1 200555Z 18005KT M04/M06 A3027 RMK A01 T10441060  RH  088%=      5-min Rain = 0
KPA1 200556Z 18005KT M04/M06 A3026 RMK A01 T10441060  RH  088%=      5-min Rain = 0
KPA1 200557Z 18006KT M04/M06 A3026 RMK A01 T10431060  RH  088%=      5-min Rain = 0
KPA1 200558Z 18005KT M04/M06 A3026 RMK A01 T10431060  RH  088%=      5-min Rain = 0
KPA1 200559Z 18005KT M04/M06 A3026 RMK A01 T10431060  RH  088%=      5-min Rain = 0

Page generated in 0.0994 seconds.